Home > Products > Valid Products > TAF

000
FTUS41 KCTP 010552
TAFMDT
TAF
KMDT 010552Z 0106/0206 00000KT P6SM SKC
     FM010800 21005KT P6SM OVC040
     FM011600 25004KT 2SM -SN OVC025
     FM011900 VRB05KT 1SM -SN BR OVC008
     FM020500 15008KT 1 1/2SM -FZRA BR OVC007=



000
FTUS41 KCTP 010552
TAFAOO
TAF
KAOO 010552Z 0106/0206 17006KT P6SM SKC
     FM011200 22004KT 2SM -SN OVC015
     FM011600 VRB05KT 1SM -SN BR OVC008
     FM020000 15006KT 4SM BR VCSH SCT008 OVC015
     FM020300 15008KT 1 1/2SM -FZRASN BR OVC007=



000
FTUS41 KCTP 010552
TAFBFD
TAF
KBFD 010552Z 0106/0206 28005KT P6SM SCT017 OVC027
     FM010900 26004KT 6SM BR OVC023
     FM011000 VRB04KT 4SM -SN OVC015
     FM011300 VRB04KT 1SM -SN OVC007
     FM012300 11008G15KT 1/2SM SN FZFG OVC005=



000
FTUS41 KCTP 010552
TAFMDT
TAF
KMDT 010552Z 0106/0206 00000KT P6SM SKC
     FM010800 21005KT P6SM OVC040
     FM011600 25004KT 2SM -SN OVC025
     FM011900 VRB05KT 1SM -SN BR OVC008
     FM020500 15008KT 1 1/2SM -FZRA BR OVC007=



000
FTUS41 KCTP 010552
TAFIPT
TAF
KIPT 010552Z 0106/0206 00000KT P6SM OVC045
     FM011600 22004KT 2SM -SN OVC025
     FM011900 VRB05KT 1SM -SN BR OVC008=



000
FTUS41 KCTP 010552
TAFJST
TAF
KJST 010552Z 0106/0206 26013KT P6SM OVC028
     FM010900 23006KT 2SM -SN OVC013
     FM011600 VRB05KT 1SM -SN BR OVC006
     FM020300 15008KT 1 1/2SM -FZRASN BR OVC007=



000
FTUS41 KCTP 010552
TAFUNV
TAF
KUNV 010552Z 0106/0206 23003KT P6SM OVC040
     FM011300 22004KT 2SM -SN OVC015
     FM011700 VRB05KT 1SM -SN BR OVC008
     FM020500 15008KT 1 1/2SM -FZRASN BR OVC007=



000
FTUS41 KCTP 010552
TAFJST
TAF
KJST 010552Z 0106/0206 26013KT P6SM OVC028
     FM010900 23006KT 2SM -SN OVC013
     FM011600 VRB05KT 1SM -SN BR OVC006
     FM020300 15008KT 1 1/2SM -FZRASN BR OVC007=



000
FTUS41 KCTP 010552
TAFBFD
TAF
KBFD 010552Z 0106/0206 28005KT P6SM SCT017 OVC027
     FM010900 26004KT 6SM BR OVC023
     FM011000 VRB04KT 4SM -SN OVC015
     FM011300 VRB04KT 1SM -SN OVC007
     FM012300 11008G15KT 1/2SM SN FZFG OVC005=



000
FTUS41 KCTP 010552
TAFUNV
TAF
KUNV 010552Z 0106/0206 23003KT P6SM OVC040
     FM011300 22004KT 2SM -SN OVC015
     FM011700 VRB05KT 1SM -SN BR OVC008
     FM020500 15008KT 1 1/2SM -FZRASN BR OVC007=



000
FTUS41 KCTP 010552
TAFAOO
TAF
KAOO 010552Z 0106/0206 17006KT P6SM SKC
     FM011200 22004KT 2SM -SN OVC015
     FM011600 VRB05KT 1SM -SN BR OVC008
     FM020000 15006KT 4SM BR VCSH SCT008 OVC015
     FM020300 15008KT 1 1/2SM -FZRASN BR OVC007=



000
FTUS41 KCTP 010552
TAFJST
TAF
KJST 010552Z 0106/0206 26013KT P6SM OVC028
     FM010900 23006KT 2SM -SN OVC013
     FM011600 VRB05KT 1SM -SN BR OVC006
     FM020300 15008KT 1 1/2SM -FZRASN BR OVC007=



000
FTUS41 KCTP 010552
TAFBFD
TAF
KBFD 010552Z 0106/0206 28005KT P6SM SCT017 OVC027
     FM010900 26004KT 6SM BR OVC023
     FM011000 VRB04KT 4SM -SN OVC015
     FM011300 VRB04KT 1SM -SN OVC007
     FM012300 11008G15KT 1/2SM SN FZFG OVC005=



000
FTUS41 KCTP 010552
TAFIPT
TAF
KIPT 010552Z 0106/0206 00000KT P6SM OVC045
     FM011600 22004KT 2SM -SN OVC025
     FM011900 VRB05KT 1SM -SN BR OVC008=



000
FTUS41 KCTP 010552
TAFMDT
TAF
KMDT 010552Z 0106/0206 00000KT P6SM SKC
     FM010800 21005KT P6SM OVC040
     FM011600 25004KT 2SM -SN OVC025
     FM011900 VRB05KT 1SM -SN BR OVC008
     FM020500 15008KT 1 1/2SM -FZRA BR OVC007=



000
FTUS41 KCTP 010552
TAFIPT
TAF
KIPT 010552Z 0106/0206 00000KT P6SM OVC045
     FM011600 22004KT 2SM -SN OVC025
     FM011900 VRB05KT 1SM -SN BR OVC008=



000
FTUS41 KCTP 010552
TAFAOO
TAF
KAOO 010552Z 0106/0206 17006KT P6SM SKC
     FM011200 22004KT 2SM -SN OVC015
     FM011600 VRB05KT 1SM -SN BR OVC008
     FM020000 15006KT 4SM BR VCSH SCT008 OVC015
     FM020300 15008KT 1 1/2SM -FZRASN BR OVC007=



000
FTUS41 KCTP 010552
TAFAOO
TAF
KAOO 010552Z 0106/0206 17006KT P6SM SKC
     FM011200 22004KT 2SM -SN OVC015
     FM011600 VRB05KT 1SM -SN BR OVC008
     FM020000 15006KT 4SM BR VCSH SCT008 OVC015
     FM020300 15008KT 1 1/2SM -FZRASN BR OVC007=



000
FTUS41 KCTP 010552
TAFJST
TAF
KJST 010552Z 0106/0206 26013KT P6SM OVC028
     FM010900 23006KT 2SM -SN OVC013
     FM011600 VRB05KT 1SM -SN BR OVC006
     FM020300 15008KT 1 1/2SM -FZRASN BR OVC007=



000
FTUS41 KCTP 010552
TAFBFD
TAF
KBFD 010552Z 0106/0206 28005KT P6SM SCT017 OVC027
     FM010900 26004KT 6SM BR OVC023
     FM011000 VRB04KT 4SM -SN OVC015
     FM011300 VRB04KT 1SM -SN OVC007
     FM012300 11008G15KT 1/2SM SN FZFG OVC005=



000
FTUS41 KCTP 010552
TAFUNV
TAF
KUNV 010552Z 0106/0206 23003KT P6SM OVC040
     FM011300 22004KT 2SM -SN OVC015
     FM011700 VRB05KT 1SM -SN BR OVC008
     FM020500 15008KT 1 1/2SM -FZRASN BR OVC007=



000
FTUS41 KCTP 010552
TAFMDT
TAF
KMDT 010552Z 0106/0206 00000KT P6SM SKC
     FM010800 21005KT P6SM OVC040
     FM011600 25004KT 2SM -SN OVC025
     FM011900 VRB05KT 1SM -SN BR OVC008
     FM020500 15008KT 1 1/2SM -FZRA BR OVC007=



000
FTUS41 KCTP 010552
TAFUNV
TAF
KUNV 010552Z 0106/0206 23003KT P6SM OVC040
     FM011300 22004KT 2SM -SN OVC015
     FM011700 VRB05KT 1SM -SN BR OVC008
     FM020500 15008KT 1 1/2SM -FZRASN BR OVC007=



000
FTUS41 KCTP 010552
TAFIPT
TAF
KIPT 010552Z 0106/0206 00000KT P6SM OVC045
     FM011600 22004KT 2SM -SN OVC025
     FM011900 VRB05KT 1SM -SN BR OVC008=



000
FTUS41 KCTP 010340 AAA
TAFIPT
TAF AMD
KIPT 010340Z 0104/0124 VRB04KT P6SM SCT250
     FM010600 21005KT P6SM OVC035
     FM011600 22004KT 2SM -SN OVC025
     FM011900 VRB05KT 1SM -SN BR OVC008=



000
FTUS41 KCTP 010340 AAA
TAFAOO
TAF AMD
KAOO 010340Z 0104/0124 19006KT P6SM SCT250
     FM010600 20005KT P6SM OVC030
     FM011200 22004KT 2SM -SN OVC015
     FM011600 VRB05KT 1SM -SN BR OVC008=



000
FTUS41 KCTP 010340 AAA
TAFJST
TAF AMD
KJST 010340Z 0104/0124 27011KT P6SM SCT030
     FM010500 25008KT P6SM OVC030
     FM010900 23006KT 2SM -SN OVC013
     FM011600 VRB05KT 1SM -SN BR OVC006=



000
FTUS41 KCTP 010340 AAA
TAFAOO
TAF AMD
KAOO 010340Z 0104/0124 19006KT P6SM SCT250
     FM010600 20005KT P6SM OVC030
     FM011200 22004KT 2SM -SN OVC015
     FM011600 VRB05KT 1SM -SN BR OVC008=



000
FTUS41 KCTP 010340 AAA
TAFJST
TAF AMD
KJST 010340Z 0104/0124 27011KT P6SM SCT030
     FM010500 25008KT P6SM OVC030
     FM010900 23006KT 2SM -SN OVC013
     FM011600 VRB05KT 1SM -SN BR OVC006=



000
FTUS41 KCTP 010340 AAA
TAFAOO
TAF AMD
KAOO 010340Z 0104/0124 19006KT P6SM SCT250
     FM010600 20005KT P6SM OVC030
     FM011200 22004KT 2SM -SN OVC015
     FM011600 VRB05KT 1SM -SN BR OVC008=



000
FTUS41 KCTP 010340 AAA
TAFUNV
TAF AMD
KUNV 010340Z 0104/0124 24007KT P6SM SCT250
     FM010600 21005KT P6SM OVC035
     FM011300 22004KT 2SM -SN OVC015
     FM011700 VRB05KT 1SM -SN BR OVC008=



000
FTUS41 KCTP 010340 AAA
TAFAOO
TAF AMD
KAOO 010340Z 0104/0124 19006KT P6SM SCT250
     FM010600 20005KT P6SM OVC030
     FM011200 22004KT 2SM -SN OVC015
     FM011600 VRB05KT 1SM -SN BR OVC008=



000
FTUS41 KCTP 010340 AAB
TAFBFD
TAF AMD
KBFD 010340Z 0104/0124 26005KT P6SM OVC030
     FM010900 26004KT 6SM BR OVC023
     FM011000 VRB04KT 2SM -SN OVC013
     FM011200 VRB04KT 1SM -SN OVC007
     FM012300 11008G15KT 1/2SM SN FZFG OVC005=



000
FTUS41 KCTP 010340 AAB
TAFBFD
TAF AMD
KBFD 010340Z 0104/0124 26005KT P6SM OVC030
     FM010900 26004KT 6SM BR OVC023
     FM011000 VRB04KT 2SM -SN OVC013
     FM011200 VRB04KT 1SM -SN OVC007
     FM012300 11008G15KT 1/2SM SN FZFG OVC005=



000
FTUS41 KCTP 010340 AAA
TAFUNV
TAF AMD
KUNV 010340Z 0104/0124 24007KT P6SM SCT250
     FM010600 21005KT P6SM OVC035
     FM011300 22004KT 2SM -SN OVC015
     FM011700 VRB05KT 1SM -SN BR OVC008=



000
FTUS41 KCTP 010340 AAA
TAFJST
TAF AMD
KJST 010340Z 0104/0124 27011KT P6SM SCT030
     FM010500 25008KT P6SM OVC030
     FM010900 23006KT 2SM -SN OVC013
     FM011600 VRB05KT 1SM -SN BR OVC006=



000
FTUS41 KCTP 010340 AAA
TAFIPT
TAF AMD
KIPT 010340Z 0104/0124 VRB04KT P6SM SCT250
     FM010600 21005KT P6SM OVC035
     FM011600 22004KT 2SM -SN OVC025
     FM011900 VRB05KT 1SM -SN BR OVC008=



000
FTUS41 KCTP 010340 AAA
TAFUNV
TAF AMD
KUNV 010340Z 0104/0124 24007KT P6SM SCT250
     FM010600 21005KT P6SM OVC035
     FM011300 22004KT 2SM -SN OVC015
     FM011700 VRB05KT 1SM -SN BR OVC008=



000
FTUS41 KCTP 010340 AAA
TAFMDT
TAF AMD
KMDT 010340Z 0104/0124 VRB02KT P6SM SKC
     FM010800 21005KT P6SM OVC040
     FM011600 25004KT 2SM -SN OVC025
     FM011900 VRB05KT 1SM -SN BR OVC008=



000
FTUS41 KCTP 010340 AAA
TAFJST
TAF AMD
KJST 010340Z 0104/0124 27011KT P6SM SCT030
     FM010500 25008KT P6SM OVC030
     FM010900 23006KT 2SM -SN OVC013
     FM011600 VRB05KT 1SM -SN BR OVC006=



000
FTUS41 KCTP 010340 AAB
TAFBFD
TAF AMD
KBFD 010340Z 0104/0124 26005KT P6SM OVC030
     FM010900 26004KT 6SM BR OVC023
     FM011000 VRB04KT 2SM -SN OVC013
     FM011200 VRB04KT 1SM -SN OVC007
     FM012300 11008G15KT 1/2SM SN FZFG OVC005=



000
FTUS41 KCTP 010340 AAA
TAFMDT
TAF AMD
KMDT 010340Z 0104/0124 VRB02KT P6SM SKC
     FM010800 21005KT P6SM OVC040
     FM011600 25004KT 2SM -SN OVC025
     FM011900 VRB05KT 1SM -SN BR OVC008=



000
FTUS41 KCTP 010340 AAA
TAFUNV
TAF AMD
KUNV 010340Z 0104/0124 24007KT P6SM SCT250
     FM010600 21005KT P6SM OVC035
     FM011300 22004KT 2SM -SN OVC015
     FM011700 VRB05KT 1SM -SN BR OVC008=



000
FTUS41 KCTP 010340 AAA
TAFIPT
TAF AMD
KIPT 010340Z 0104/0124 VRB04KT P6SM SCT250
     FM010600 21005KT P6SM OVC035
     FM011600 22004KT 2SM -SN OVC025
     FM011900 VRB05KT 1SM -SN BR OVC008=



000
FTUS41 KCTP 010340 AAA
TAFMDT
TAF AMD
KMDT 010340Z 0104/0124 VRB02KT P6SM SKC
     FM010800 21005KT P6SM OVC040
     FM011600 25004KT 2SM -SN OVC025
     FM011900 VRB05KT 1SM -SN BR OVC008=



000
FTUS41 KCTP 010340 AAA
TAFMDT
TAF AMD
KMDT 010340Z 0104/0124 VRB02KT P6SM SKC
     FM010800 21005KT P6SM OVC040
     FM011600 25004KT 2SM -SN OVC025
     FM011900 VRB05KT 1SM -SN BR OVC008=



000
FTUS41 KCTP 010340 AAB
TAFBFD
TAF AMD
KBFD 010340Z 0104/0124 26005KT P6SM OVC030
     FM010900 26004KT 6SM BR OVC023
     FM011000 VRB04KT 2SM -SN OVC013
     FM011200 VRB04KT 1SM -SN OVC007
     FM012300 11008G15KT 1/2SM SN FZFG OVC005=



000
FTUS41 KCTP 010340 AAA
TAFIPT
TAF AMD
KIPT 010340Z 0104/0124 VRB04KT P6SM SCT250
     FM010600 21005KT P6SM OVC035
     FM011600 22004KT 2SM -SN OVC025
     FM011900 VRB05KT 1SM -SN BR OVC008=



000
FTUS41 KCTP 010029 AAA
TAFBFD
TAF AMD
KBFD 010029Z 0100/0124 27005KT P6SM OVC018
     FM010600 28006KT 6SM BR OVC015
     FM010900 VRB04KT 2SM -SN OVC007
     FM011200 VRB04KT 1SM -SN OVC007
     FM012300 11008G15KT 1/2SM SN FZFG OVC005=



000
FTUS41 KCTP 010029 AAA
TAFBFD
TAF AMD
KBFD 010029Z 0100/0124 27005KT P6SM OVC018
     FM010600 28006KT 6SM BR OVC015
     FM010900 VRB04KT 2SM -SN OVC007
     FM011200 VRB04KT 1SM -SN OVC007
     FM012300 11008G15KT 1/2SM SN FZFG OVC005=



000
FTUS41 KCTP 010029 AAA
TAFBFD
TAF AMD
KBFD 010029Z 0100/0124 27005KT P6SM OVC018
     FM010600 28006KT 6SM BR OVC015
     FM010900 VRB04KT 2SM -SN OVC007
     FM011200 VRB04KT 1SM -SN OVC007
     FM012300 11008G15KT 1/2SM SN FZFG OVC005=



000
FTUS41 KCTP 312340
TAFUNV
TAF
KUNV 312340Z 0100/0124 28009KT P6SM FEW250
     FM010100 27006KT P6SM SCT250
     FM011200 22004KT 2SM -SN OVC015
     FM011700 VRB05KT 1SM -SN BR OVC008=



000
FTUS41 KCTP 312340
TAFMDT
TAF
KMDT 312340Z 0100/0124 30008KT P6SM SCT250
     FM010200 28005KT P6SM SCT250
     FM011500 25004KT 2SM -SN OVC025
     FM011700 VRB05KT 1SM -SN BR OVC008=



000
FTUS41 KCTP 312340
TAFIPT
TAF
KIPT 312340Z 0100/0124 27006KT P6SM SCT250
     FM011400 22004KT 2SM -SN OVC025
     FM011700 VRB05KT 1SM -SN BR OVC008=



000
FTUS41 KCTP 312340
TAFJST
TAF
KJST 312340Z 0100/0124 27009KT P6SM SCT022
     FM010900 23006KT 2SM -SN OVC007
     FM011600 VRB05KT 1SM -SN BR OVC006=



000
FTUS41 KCTP 312340
TAFBFD
TAF
KBFD 312340Z 0100/0124 28006KT P6SM OVC025
     FM010600 28006KT 6SM BR OVC015
     FM010900 VRB04KT 2SM -SN OVC007
     FM011200 VRB04KT 1SM -SN OVC007
     FM012300 11008G15KT 1/2SM SN FZFG OVC005=



000
FTUS41 KCTP 312340
TAFAOO
TAF
KAOO 312340Z 0100/0124 29008KT P6SM FEW250
     FM010100 27006KT P6SM SCT250
     FM011100 22004KT 2SM -SN OVC015
     FM011600 VRB05KT 1SM -SN BR OVC008=



000
FTUS41 KCTP 312340
TAFUNV
TAF
KUNV 312340Z 0100/0124 28009KT P6SM FEW250
     FM010100 27006KT P6SM SCT250
     FM011200 22004KT 2SM -SN OVC015
     FM011700 VRB05KT 1SM -SN BR OVC008=



000
FTUS41 KCTP 312340
TAFBFD
TAF
KBFD 312340Z 0100/0124 28006KT P6SM OVC025
     FM010600 28006KT 6SM BR OVC015
     FM010900 VRB04KT 2SM -SN OVC007
     FM011200 VRB04KT 1SM -SN OVC007
     FM012300 11008G15KT 1/2SM SN FZFG OVC005=



000
FTUS41 KCTP 312340
TAFJST
TAF
KJST 312340Z 0100/0124 27009KT P6SM SCT022
     FM010900 23006KT 2SM -SN OVC007
     FM011600 VRB05KT 1SM -SN BR OVC006=



000
FTUS41 KCTP 312340
TAFMDT
TAF
KMDT 312340Z 0100/0124 30008KT P6SM SCT250
     FM010200 28005KT P6SM SCT250
     FM011500 25004KT 2SM -SN OVC025
     FM011700 VRB05KT 1SM -SN BR OVC008=



000
FTUS41 KCTP 312340
TAFIPT
TAF
KIPT 312340Z 0100/0124 27006KT P6SM SCT250
     FM011400 22004KT 2SM -SN OVC025
     FM011700 VRB05KT 1SM -SN BR OVC008=



000
FTUS41 KCTP 312340
TAFAOO
TAF
KAOO 312340Z 0100/0124 29008KT P6SM FEW250
     FM010100 27006KT P6SM SCT250
     FM011100 22004KT 2SM -SN OVC015
     FM011600 VRB05KT 1SM -SN BR OVC008=



000
FTUS41 KCTP 312135 AAB
TAFJST
TAF AMD
KJST 312135Z 3122/0118 27009KT P6SM SCT022
     FM010900 23006KT 2SM -SN OVC007=



000
FTUS41 KCTP 312135 AAA
TAFIPT
TAF AMD
KIPT 312135Z 3122/0118 25007KT P6SM SKC
     FM010000 27006KT P6SM SCT250
     FM011400 22004KT 2SM -SN OVC025=



000
FTUS41 KCTP 312135 AAA
TAFBFD
TAF AMD
KBFD 312135Z 3122/0118 28008KT P6SM SKC
     FM010200 28006KT P6SM OVC025
     FM010600 28006KT 6SM BR OVC015
     FM010900 28006KT 2SM -SN OVC007=



000
FTUS41 KCTP 312135 AAA
TAFMDT
TAF AMD
KMDT 312135Z 3122/0118 31014KT P6SM SKC
     FM312300 30010KT P6SM SCT250
     FM010100 28005KT P6SM SCT250
     FM011500 25004KT 2SM -SN OVC025=



000
FTUS41 KCTP 312135 AAA
TAFIPT
TAF AMD
KIPT 312135Z 3122/0118 25007KT P6SM SKC
     FM010000 27006KT P6SM SCT250
     FM011400 22004KT 2SM -SN OVC025=



000
FTUS41 KCTP 312135 AAA
TAFMDT
TAF AMD
KMDT 312135Z 3122/0118 31014KT P6SM SKC
     FM312300 30010KT P6SM SCT250
     FM010100 28005KT P6SM SCT250
     FM011500 25004KT 2SM -SN OVC025=



000
FTUS41 KCTP 312135 AAA
TAFBFD
TAF AMD
KBFD 312135Z 3122/0118 28008KT P6SM SKC
     FM010200 28006KT P6SM OVC025
     FM010600 28006KT 6SM BR OVC015
     FM010900 28006KT 2SM -SN OVC007=



000
FTUS41 KCTP 312135 AAB
TAFJST
TAF AMD
KJST 312135Z 3122/0118 27009KT P6SM SCT022
     FM010900 23006KT 2SM -SN OVC007=



000
FTUS41 KCTP 312135 AAA
TAFUNV
TAF AMD
KUNV 312135Z 3122/0118 28007KT P6SM FEW250
     FM010100 27006KT P6SM SCT250
     FM011200 22004KT 2SM -SN OVC015=



000
FTUS41 KCTP 312135 AAA
TAFAOO
TAF AMD
KAOO 312135Z 3122/0118 30010KT P6SM FEW250
     FM010100 27006KT P6SM SCT250
     FM011100 22004KT 2SM -SN OVC015=



000
FTUS41 KCTP 312135 AAA
TAFAOO
TAF AMD
KAOO 312135Z 3122/0118 30010KT P6SM FEW250
     FM010100 27006KT P6SM SCT250
     FM011100 22004KT 2SM -SN OVC015=



000
FTUS41 KCTP 312135 AAA
TAFAOO
TAF AMD
KAOO 312135Z 3122/0118 30010KT P6SM FEW250
     FM010100 27006KT P6SM SCT250
     FM011100 22004KT 2SM -SN OVC015=



000
FTUS41 KCTP 312135 AAA
TAFBFD
TAF AMD
KBFD 312135Z 3122/0118 28008KT P6SM SKC
     FM010200 28006KT P6SM OVC025
     FM010600 28006KT 6SM BR OVC015
     FM010900 28006KT 2SM -SN OVC007=



000
FTUS41 KCTP 312135 AAB
TAFJST
TAF AMD
KJST 312135Z 3122/0118 27009KT P6SM SCT022
     FM010900 23006KT 2SM -SN OVC007=



000
FTUS41 KCTP 312135 AAA
TAFMDT
TAF AMD
KMDT 312135Z 3122/0118 31014KT P6SM SKC
     FM312300 30010KT P6SM SCT250
     FM010100 28005KT P6SM SCT250
     FM011500 25004KT 2SM -SN OVC025=



000
FTUS41 KCTP 312135 AAA
TAFUNV
TAF AMD
KUNV 312135Z 3122/0118 28007KT P6SM FEW250
     FM010100 27006KT P6SM SCT250
     FM011200 22004KT 2SM -SN OVC015=



000
FTUS41 KCTP 312135 AAA
TAFIPT
TAF AMD
KIPT 312135Z 3122/0118 25007KT P6SM SKC
     FM010000 27006KT P6SM SCT250
     FM011400 22004KT 2SM -SN OVC025=



000
FTUS41 KCTP 312135 AAA
TAFUNV
TAF AMD
KUNV 312135Z 3122/0118 28007KT P6SM FEW250
     FM010100 27006KT P6SM SCT250
     FM011200 22004KT 2SM -SN OVC015=



000
FTUS41 KCTP 311937 AAA
TAFJST
TAF AMD
KJST 311937Z 3120/0118 27009KT P6SM SCT022
     FM010900 23006KT 2SM -SN OVC007=



000
FTUS41 KCTP 311736
TAFAOO
TAF
KAOO 311736Z 3118/0118 31011KT P6SM FEW025
     FM312200 27006KT P6SM SCT250
     FM011100 22004KT 2SM -SN OVC015=



000
FTUS41 KCTP 311736
TAFMDT
TAF
KMDT 311736Z 3118/0118 32015KT P6SM FEW040
     FM312200 30010KT P6SM SCT250
     FM010000 28005KT P6SM SCT250
     FM011500 25004KT 2SM -SN OVC025=



000
FTUS41 KCTP 311736
TAFBFD
TAF
KBFD 311736Z 3118/0118 28006KT P6SM SCT025 BKN035
     FM010200 28006KT P6SM OVC025
     FM010600 28006KT 6SM BR OVC015
     FM010900 28006KT 2SM -SN OVC007=



000
FTUS41 KCTP 311736
TAFIPT
TAF
KIPT 311736Z 3118/0118 30011KT P6SM SCT035
     FM312200 27006KT P6SM SCT250
     FM011400 22004KT 2SM -SN OVC025=



000
FTUS41 KCTP 311736
TAFJST
TAF
KJST 311736Z 3118/0118 27011G17KT P6SM BKN018
     FM311900 28011KT P6SM BKN022
     FM312030 27009KT P6SM SCT022
     FM010900 23006KT 2SM -SN OVC007=



000
FTUS41 KCTP 311736
TAFUNV
TAF
KUNV 311736Z 3118/0118 29011KT P6SM SCT028
     FM312200 27006KT P6SM SCT250
     FM011200 22004KT 2SM -SN OVC015=



000
FTUS41 KCTP 311736
TAFUNV
TAF
KUNV 311736Z 3118/0118 29011KT P6SM SCT028
     FM312200 27006KT P6SM SCT250
     FM011200 22004KT 2SM -SN OVC015=



000
FTUS41 KCTP 311736
TAFJST
TAF
KJST 311736Z 3118/0118 27011G17KT P6SM BKN018
     FM311900 28011KT P6SM BKN022
     FM312030 27009KT P6SM SCT022
     FM010900 23006KT 2SM -SN OVC007=



000
FTUS41 KCTP 311736
TAFBFD
TAF
KBFD 311736Z 3118/0118 28006KT P6SM SCT025 BKN035
     FM010200 28006KT P6SM OVC025
     FM010600 28006KT 6SM BR OVC015
     FM010900 28006KT 2SM -SN OVC007=



000
FTUS41 KCTP 311736
TAFMDT
TAF
KMDT 311736Z 3118/0118 32015KT P6SM FEW040
     FM312200 30010KT P6SM SCT250
     FM010000 28005KT P6SM SCT250
     FM011500 25004KT 2SM -SN OVC025=



000
FTUS41 KCTP 311736
TAFAOO
TAF
KAOO 311736Z 3118/0118 31011KT P6SM FEW025
     FM312200 27006KT P6SM SCT250
     FM011100 22004KT 2SM -SN OVC015=



000
FTUS41 KCTP 311736
TAFIPT
TAF
KIPT 311736Z 3118/0118 30011KT P6SM SCT035
     FM312200 27006KT P6SM SCT250
     FM011400 22004KT 2SM -SN OVC025=



000
FTUS41 KCTP 311531 AAC
TAFJST
TAF AMD
KJST 311531Z 3116/0112 27009KT P6SM BKN020
     FM311800 28010KT P6SM BKN035
     FM312000 27005KT P6SM OVC050=



000
FTUS41 KCTP 311531 AAC
TAFJST
TAF AMD
KJST 311531Z 3116/0112 27009KT P6SM BKN020
     FM311800 28010KT P6SM BKN035
     FM312000 27005KT P6SM OVC050=



000
FTUS41 KCTP 311530 AAA
TAFUNV
TAF AMD
KUNV 311530Z 3116/0112 31010KT P6SM OVC026
     FM312000 30009KT P6SM SCT040=



000
FTUS41 KCTP 311530 AAA
TAFUNV
TAF AMD
KUNV 311530Z 3116/0112 31010KT P6SM OVC026
     FM312000 30009KT P6SM SCT040=



000
FTUS41 KCTP 311529 AAA
TAFMDT
TAF AMD
KMDT 311529Z 3115/0112 32015G25KT P6SM SKC
     FM312200 30010KT P6SM SCT250
     FM010000 30003KT P6SM OVC250=



000
FTUS41 KCTP 311529 AAA
TAFMDT
TAF AMD
KMDT 311529Z 3115/0112 32015G25KT P6SM SKC
     FM312200 30010KT P6SM SCT250
     FM010000 30003KT P6SM OVC250=



000
FTUS41 KCTP 311529 AAA
TAFIPT
TAF AMD
KIPT 311529Z 3115/0112 29011KT P6SM BKN040
     FM010200 30003KT P6SM OVC050=



000
FTUS41 KCTP 311529 AAA
TAFIPT
TAF AMD
KIPT 311529Z 3115/0112 29011KT P6SM BKN040
     FM010200 30003KT P6SM OVC050=



000
FTUS41 KCTP 311432 AAA
TAFAOO
TAF AMD
KAOO 311432Z 3115/0112 32009KT P6SM SCT018
     FM311600 24010KT P6SM BKN250=



000
FTUS41 KCTP 311432 AAA
TAFAOO
TAF AMD
KAOO 311432Z 3115/0112 32009KT P6SM SCT018
     FM311600 24010KT P6SM BKN250=



000
FTUS41 KCTP 311430 AAA
TAFBFD
TAF AMD
KBFD 311430Z 3115/0112 29006KT 4SM -SN OVC018
     FM311800 31007KT P6SM BKN025
     FM010300 28005KT P6SM OVC015
     FM011000 27002KT 4SM BR OVC007=



000
FTUS41 KCTP 311430 AAA
TAFBFD
TAF AMD
KBFD 311430Z 3115/0112 29006KT 4SM -SN OVC018
     FM311800 31007KT P6SM BKN025
     FM010300 28005KT P6SM OVC015
     FM011000 27002KT 4SM BR OVC007=



000
FTUS41 KCTP 311430 AAB
TAFJST
TAF AMD
KJST 311430Z 3115/0112 27009KT P6SM BKN019
     FM311600 28010KT P6SM BKN035
     FM311800 27005KT P6SM OVC050=



000
FTUS41 KCTP 311430 AAB
TAFJST
TAF AMD
KJST 311430Z 3115/0112 27009KT P6SM BKN019
     FM311600 28010KT P6SM BKN035
     FM311800 27005KT P6SM OVC050=



000
FTUS41 KCTP 311239 AAA
TAFJST
TAF AMD
KJST 311239Z 3113/0112 27009KT P6SM FEW012
     FM311400 28010KT P6SM BKN035
     FM311800 27005KT P6SM OVC050=



000
FTUS41 KCTP 311138
TAFMDT
TAF
KMDT 311138Z 3112/0112 32013G22KT P6SM SKC
     FM312200 30010KT P6SM SCT250
     FM010000 30003KT P6SM OVC250=



000
FTUS41 KCTP 311138
TAFBFD
TAF
KBFD 311138Z 3112/0112 29006KT P6SM -SN OVC014
     FM311400 31007KT P6SM BKN025
     FM311800 27005KT P6SM OVC050
     FM010300 28005KT P6SM OVC015
     FM011000 27002KT 4SM BR OVC007=



000
FTUS41 KCTP 311138
TAFUNV
TAF
KUNV 311138Z 3112/0112 33012KT P6SM OVC026
     FM312000 30009KT P6SM SCT040=



000
FTUS41 KCTP 311138
TAFIPT
TAF
KIPT 311138Z 3112/0112 26011KT P6SM SKC
     FM311500 31012G22KT P6SM SCT250
     FM010200 30003KT P6SM OVC050=



000
FTUS41 KCTP 311138
TAFJST
TAF
KJST 311138Z 3112/0112 27009KT 6SM -SN BR OVC012
     FM311400 28010KT P6SM BKN015 BKN035
     FM311800 27005KT P6SM OVC050=



000
FTUS41 KCTP 311138
TAFAOO
TAF
KAOO 311138Z 3112/0112 32011KT P6SM BKN017
     FM311400 28008KT P6SM BKN025
     FM311600 24010KT P6SM BKN250=



000
FTUS41 KCTP 311138
TAFUNV
TAF
KUNV 311138Z 3112/0112 33012KT P6SM OVC026
     FM312000 30009KT P6SM SCT040=



000
FTUS41 KCTP 311138
TAFJST
TAF
KJST 311138Z 3112/0112 27009KT 6SM -SN BR OVC012
     FM311400 28010KT P6SM BKN015 BKN035
     FM311800 27005KT P6SM OVC050=



000
FTUS41 KCTP 311138
TAFBFD
TAF
KBFD 311138Z 3112/0112 29006KT P6SM -SN OVC014
     FM311400 31007KT P6SM BKN025
     FM311800 27005KT P6SM OVC050
     FM010300 28005KT P6SM OVC015
     FM011000 27002KT 4SM BR OVC007=



000
FTUS41 KCTP 311138
TAFMDT
TAF
KMDT 311138Z 3112/0112 32013G22KT P6SM SKC
     FM312200 30010KT P6SM SCT250
     FM010000 30003KT P6SM OVC250=



000
FTUS41 KCTP 311138
TAFAOO
TAF
KAOO 311138Z 3112/0112 32011KT P6SM BKN017
     FM311400 28008KT P6SM BKN025
     FM311600 24010KT P6SM BKN250=



000
FTUS41 KCTP 311138
TAFIPT
TAF
KIPT 311138Z 3112/0112 26011KT P6SM SKC
     FM311500 31012G22KT P6SM SCT250
     FM010200 30003KT P6SM OVC050=



000
FTUS41 KCTP 310927 AAA
TAFMDT
TAF AMD
KMDT 310927Z 3109/0106 31013G21KT P6SM SKC
     FM312200 30010KT P6SM SCT250=



000
FTUS41 KCTP 310927 AAA
TAFBFD
TAF AMD
KBFD 310927Z 3109/0106 30006KT P6SM OVC014
     FM311400 31007KT P6SM BKN025
     FM311800 27005KT P6SM OVC050
     FM010300 28005KT P6SM OVC015=



000
FTUS41 KCTP 310927 AAA
TAFMDT
TAF AMD
KMDT 310927Z 3109/0106 31013G21KT P6SM SKC
     FM312200 30010KT P6SM SCT250=



000
FTUS41 KCTP 310927 AAA
TAFAOO
TAF AMD
KAOO 310927Z 3109/0106 32015G20KT P6SM OVC023
     FM311000 30010KT P6SM SCT040=



000
FTUS41 KCTP 310927 AAA
TAFIPT
TAF AMD
KIPT 310927Z 3109/0106 27011KT P6SM SKC
     FM311500 31012G22KT P6SM SCT250=



000
FTUS41 KCTP 310927 AAB
TAFJST
TAF AMD
KJST 310927Z 3109/0106 29009KT 5SM -SN OVC013
     FM311000 31012G22KT P6SM SCT025 BKN040
     FM311400 28010KT P6SM BKN035=



000
FTUS41 KCTP 310927 AAA
TAFUNV
TAF AMD
KUNV 310927Z 3109/0106 30007KT P6SM SCT110
     FM312000 30009KT P6SM SCT040=



000
FTUS41 KCTP 310927 AAB
TAFJST
TAF AMD
KJST 310927Z 3109/0106 29009KT 5SM -SN OVC013
     FM311000 31012G22KT P6SM SCT025 BKN040
     FM311400 28010KT P6SM BKN035=



000
FTUS41 KCTP 310927 AAA
TAFBFD
TAF AMD
KBFD 310927Z 3109/0106 30006KT P6SM OVC014
     FM311400 31007KT P6SM BKN025
     FM311800 27005KT P6SM OVC050
     FM010300 28005KT P6SM OVC015=



000
FTUS41 KCTP 310927 AAA
TAFIPT
TAF AMD
KIPT 310927Z 3109/0106 27011KT P6SM SKC
     FM311500 31012G22KT P6SM SCT250=



000
FTUS41 KCTP 310927 AAA
TAFAOO
TAF AMD
KAOO 310927Z 3109/0106 32015G20KT P6SM OVC023
     FM311000 30010KT P6SM SCT040=



000
FTUS41 KCTP 310927 AAA
TAFUNV
TAF AMD
KUNV 310927Z 3109/0106 30007KT P6SM SCT110
     FM312000 30009KT P6SM SCT040=



000
FTUS41 KCTP 310711 AAA
TAFJST
TAF AMD
KJST 310711Z 3107/0106 29013G26KT 2SM -SN OVC016
     FM311000 31012G22KT P6SM SCT025 BKN040
     FM311400 28010KT P6SM BKN035=



000
FTUS41 KCTP 310711 AAA
TAFJST
TAF AMD
KJST 310711Z 3107/0106 29013G26KT 2SM -SN OVC016
     FM311000 31012G22KT P6SM SCT025 BKN040
     FM311400 28010KT P6SM BKN035=



000
FTUS41 KCTP 310525
TAFIPT
TAF
KIPT 310525Z 3106/0106 28011KT P6SM BKN035
     FM311500 31012G22KT P6SM SCT250=



000
FTUS41 KCTP 310525
TAFMDT
TAF
KMDT 310525Z 3106/0106 32019KT P6SM FEW045
     FM312200 30010KT P6SM SCT250=



000
FTUS41 KCTP 310525
TAFBFD
TAF
KBFD 310525Z 3106/0106 32014KT 6SM BLSN VCSH BKN014
     FM310800 31007KT P6SM BKN015=



000
FTUS41 KCTP 310525
TAFUNV
TAF
KUNV 310525Z 3106/0106 31006G18KT P6SM SCT110
     FM312000 30009KT P6SM SCT040=



000
FTUS41 KCTP 310525
TAFAOO
TAF
KAOO 310525Z 3106/0106 31010KT P6SM -SN OVC026
     FM311000 30010KT P6SM SCT040=



000
FTUS41 KCTP 310525
TAFJST
TAF
KJST 310525Z 3106/0106 29018G26KT 1SM -SN OVC018
     FM310800 31012G22KT P6SM SCT025 BKN040
     FM311400 28010KT P6SM BKN035=



000
FTUS41 KCTP 310525
TAFUNV
TAF
KUNV 310525Z 3106/0106 31006G18KT P6SM SCT110
     FM312000 30009KT P6SM SCT040=



000
FTUS41 KCTP 310525
TAFMDT
TAF
KMDT 310525Z 3106/0106 32019KT P6SM FEW045
     FM312200 30010KT P6SM SCT250=



000
FTUS41 KCTP 310525
TAFIPT
TAF
KIPT 310525Z 3106/0106 28011KT P6SM BKN035
     FM311500 31012G22KT P6SM SCT250=



000
FTUS41 KCTP 310525
TAFJST
TAF
KJST 310525Z 3106/0106 29018G26KT 1SM -SN OVC018
     FM310800 31012G22KT P6SM SCT025 BKN040
     FM311400 28010KT P6SM BKN035=



000
FTUS41 KCTP 310525
TAFAOO
TAF
KAOO 310525Z 3106/0106 31010KT P6SM -SN OVC026
     FM311000 30010KT P6SM SCT040=



000
FTUS41 KCTP 310525
TAFBFD
TAF
KBFD 310525Z 3106/0106 32014KT 6SM BLSN VCSH BKN014
     FM310800 31007KT P6SM BKN015=



000
FTUS41 KCTP 310346 AAA
TAFIPT
TAF AMD
KIPT 310346Z 3104/3124 29012KT P6SM SCT040
     FM311500 31012G22KT P6SM SCT250=



000
FTUS41 KCTP 310346 AAA
TAFBFD
TAF AMD
KBFD 310346Z 3104/3124 31014G22KT P6SM VCSH SCT012
      TEMPO 3104/3106 3SM -SHSN OVC012
     FM310800 31007KT P6SM BKN015=



000
FTUS41 KCTP 310346 AAA
TAFAOO
TAF AMD
KAOO 310346Z 3104/3124 31015G24KT P6SM BKN035
     FM311000 30010KT P6SM SCT040=



000
FTUS41 KCTP 310346 AAA
TAFMDT
TAF AMD
KMDT 310346Z 3104/3124 31020G28KT P6SM SCT040
     FM312200 30010KT P6SM SCT250=



000
FTUS41 KCTP 310346 AAA
TAFJST
TAF AMD
KJST 310346Z 3104/3124 29012G22KT 4SM -SHSN BKN015 OVC025
      TEMPO 3104/3106 3SM -SHSN OVC025
     FM310800 31012G22KT P6SM SCT025 BKN040
     FM311400 28010KT P6SM BKN035=



000
FTUS41 KCTP 310346 AAA
TAFUNV
TAF AMD
KUNV 310346Z 3104/3124 29008G22KT P6SM BKN025 OVC035
     FM310600 31012G23KT P6SM SCT025 BKN040
     FM312000 30009KT P6SM SCT040=



000
FTUS41 KCTP 310346 AAA
TAFAOO
TAF AMD
KAOO 310346Z 3104/3124 31015G24KT P6SM BKN035
     FM311000 30010KT P6SM SCT040=



000
FTUS41 KCTP 310346 AAA
TAFJST
TAF AMD
KJST 310346Z 3104/3124 29012G22KT 4SM -SHSN BKN015 OVC025
      TEMPO 3104/3106 3SM -SHSN OVC025
     FM310800 31012G22KT P6SM SCT025 BKN040
     FM311400 28010KT P6SM BKN035=



000
FTUS41 KCTP 310346 AAA
TAFBFD
TAF AMD
KBFD 310346Z 3104/3124 31014G22KT P6SM VCSH SCT012
      TEMPO 3104/3106 3SM -SHSN OVC012
     FM310800 31007KT P6SM BKN015=



000
FTUS41 KCTP 310346 AAA
TAFIPT
TAF AMD
KIPT 310346Z 3104/3124 29012KT P6SM SCT040
     FM311500 31012G22KT P6SM SCT250=



000
FTUS41 KCTP 310346 AAA
TAFUNV
TAF AMD
KUNV 310346Z 3104/3124 29008G22KT P6SM BKN025 OVC035
     FM310600 31012G23KT P6SM SCT025 BKN040
     FM312000 30009KT P6SM SCT040=



000
FTUS41 KCTP 310346 AAA
TAFMDT
TAF AMD
KMDT 310346Z 3104/3124 31020G28KT P6SM SCT040
     FM312200 30010KT P6SM SCT250=



000
FTUS41 KCTP 302341
TAFAOO
TAF
KAOO 302341Z 3100/3124 31015G28KT P6SM -SN SCT025 OVC035
      TEMPO 3100/3102 2SM -SN OVC025
     FM310200 31018G30KT P6SM BKN040
     FM310800 30010G15KT P6SM SCT040=



000
FTUS41 KCTP 302341
TAFIPT
TAF
KIPT 302341Z 3100/3124 31016G28KT P6SM VCSH BKN045
     FM310800 31012G22KT P6SM SKC=



000
FTUS41 KCTP 302341
TAFUNV
TAF
KUNV 302341Z 3100/3124 31012G22KT 6SM -SHSN BKN023 OVC030
      TEMPO 3100/3102 3SM -SHSN BKN018 OVC025
     FM310200 31012G23KT P6SM SCT025 BKN040
     FM310800 30010G15KT P6SM SCT040=



000
FTUS41 KCTP 302341
TAFMDT
TAF
KMDT 302341Z 3100/3124 30020G29KT P6SM SCT045 BKN090
     FM310600 31012G22KT P6SM SKC=



000
FTUS41 KCTP 302341
TAFAOO
TAF
KAOO 302341Z 3100/3124 31015G28KT P6SM -SN SCT025 OVC035
      TEMPO 3100/3102 2SM -SN OVC025
     FM310200 31018G30KT P6SM BKN040
     FM310800 30010G15KT P6SM SCT040=



000
FTUS41 KCTP 302341
TAFJST
TAF
KJST 302341Z 3100/3124 30022G34KT 1/2SM SHSN BKN015 OVC025
      TEMPO 3100/3102 3SM -SHSN OVC025
     FM310200 31014G24KT 3SM -SHSN OVC025
     FM310400 31012G22KT P6SM SCT025 BKN040=



000
FTUS41 KCTP 302341
TAFBFD
TAF
KBFD 302341Z 3100/3124 31012G22KT 1SM -SHSN BKN012 OVC025
      TEMPO 3100/3102 3SM -SHSN OVC025
     FM310200 31012G22KT P6SM SCT025 BKN040
     FM310800 31007KT P6SM SCT025 BKN040=



000
FTUS41 KCTP 302341
TAFIPT
TAF
KIPT 302341Z 3100/3124 31016G28KT P6SM VCSH BKN045
     FM310800 31012G22KT P6SM SKC=



000
FTUS41 KCTP 302341
TAFUNV
TAF
KUNV 302341Z 3100/3124 31012G22KT 6SM -SHSN BKN023 OVC030
      TEMPO 3100/3102 3SM -SHSN BKN018 OVC025
     FM310200 31012G23KT P6SM SCT025 BKN040
     FM310800 30010G15KT P6SM SCT040=



000
FTUS41 KCTP 302341
TAFMDT
TAF
KMDT 302341Z 3100/3124 30020G29KT P6SM SCT045 BKN090
     FM310600 31012G22KT P6SM SKC=



000
FTUS41 KCTP 302341
TAFBFD
TAF
KBFD 302341Z 3100/3124 31012G22KT 1SM -SHSN BKN012 OVC025
      TEMPO 3100/3102 3SM -SHSN OVC025
     FM310200 31012G22KT P6SM SCT025 BKN040
     FM310800 31007KT P6SM SCT025 BKN040=



000
FTUS41 KCTP 302341
TAFJST
TAF
KJST 302341Z 3100/3124 30022G34KT 1/2SM SHSN BKN015 OVC025
      TEMPO 3100/3102 3SM -SHSN OVC025
     FM310200 31014G24KT 3SM -SHSN OVC025
     FM310400 31012G22KT P6SM SCT025 BKN040=



000
FTUS41 KCTP 302144 AAB
TAFUNV
TAF AMD
KUNV 302144Z 3022/3118 31015G23KT 5SM -SHSN BKN023 OVC030
      TEMPO 3022/3023 3SM -SHSN BKN018 OVC025
     FM302300 31012G23KT P6SM SCT025 BKN040
     FM310000 30010G15KT P6SM SCT040=



000
FTUS41 KCTP 302144 AAB
TAFJST
TAF AMD
KJST 302144Z 3022/3118 30020G32KT 1/4SM +SHSN BKN013 OVC025
      TEMPO 3022/3023 3SM -SHSN OVC025
     FM302300 31014G24KT 3SM -SHSN OVC025
     FM310100 31012G22KT P6SM SCT025 BKN040=



000
FTUS41 KCTP 302144 AAA
TAFIPT
TAF AMD
KIPT 302144Z 3022/3118 31016G28KT P6SM VCSH OVC045
     FM310100 31012G22KT P6SM SKC=



000
FTUS41 KCTP 302144 AAA
TAFMDT
TAF AMD
KMDT 302144Z 3022/3118 31020G29KT P6SM SCT045 BKN090
     FM310100 31012G22KT P6SM SKC=



000
FTUS41 KCTP 302144 AAA
TAFIPT
TAF AMD
KIPT 302144Z 3022/3118 31016G28KT P6SM VCSH OVC045
     FM310100 31012G22KT P6SM SKC=



000
FTUS41 KCTP 302144 AAA
TAFMDT
TAF AMD
KMDT 302144Z 3022/3118 31020G29KT P6SM SCT045 BKN090
     FM310100 31012G22KT P6SM SKC=



000
FTUS41 KCTP 302144 AAA
TAFAOO
TAF AMD
KAOO 302144Z 3022/3118 31015G32KT P6SM -SN SCT025 OVC035
      TEMPO 3022/3024 2SM -SN OVC025
     FM310000 31018G30KT P6SM BKN040
     FM310400 30010G15KT P6SM SCT040=



000
FTUS41 KCTP 302144 AAB
TAFJST
TAF AMD
KJST 302144Z 3022/3118 30020G32KT 1/4SM +SHSN BKN013 OVC025
      TEMPO 3022/3023 3SM -SHSN OVC025
     FM302300 31014G24KT 3SM -SHSN OVC025
     FM310100 31012G22KT P6SM SCT025 BKN040=



000
FTUS41 KCTP 302144 AAB
TAFBFD
TAF AMD
KBFD 302144Z 3022/3118 32012G22KT 1SM -SHSN SCT009 OVC015
      TEMPO 3022/3023 3SM -SHSN OVC025
     FM302300 31014G21KT 3SM -SHSN OVC025
     FM310100 31012G22KT P6SM SCT025 BKN040
     FM310800 31007KT P6SM SCT025 BKN040=



000
FTUS41 KCTP 302144 AAB
TAFBFD
TAF AMD
KBFD 302144Z 3022/3118 32012G22KT 1SM -SHSN SCT009 OVC015
      TEMPO 3022/3023 3SM -SHSN OVC025
     FM302300 31014G21KT 3SM -SHSN OVC025
     FM310100 31012G22KT P6SM SCT025 BKN040
     FM310800 31007KT P6SM SCT025 BKN040=



000
FTUS41 KCTP 302144 AAB
TAFUNV
TAF AMD
KUNV 302144Z 3022/3118 31015G23KT 5SM -SHSN BKN023 OVC030
      TEMPO 3022/3023 3SM -SHSN BKN018 OVC025
     FM302300 31012G23KT P6SM SCT025 BKN040
     FM310000 30010G15KT P6SM SCT040=



000
FTUS41 KCTP 302144 AAA
TAFAOO
TAF AMD
KAOO 302144Z 3022/3118 31015G32KT P6SM -SN SCT025 OVC035
      TEMPO 3022/3024 2SM -SN OVC025
     FM310000 31018G30KT P6SM BKN040
     FM310400 30010G15KT P6SM SCT040=



000
FTUS41 KCTP 302128 AAA
TAFUNV
TAF AMD
KUNV 302128Z 3021/3118 31015G23KT 5SM -SHSN BKN023 OVC030
      TEMPO 3021/3023 3SM -SHSN BKN018 OVC025
     FM302300 31012G23KT P6SM SCT025 BKN040
     FM310000 30010G15KT P6SM SCT040=



000
FTUS41 KCTP 302128 AAA
TAFUNV
TAF AMD
KUNV 302128Z 3021/3118 31015G23KT 5SM -SHSN BKN023 OVC030
      TEMPO 3021/3023 3SM -SHSN BKN018 OVC025
     FM302300 31012G23KT P6SM SCT025 BKN040
     FM310000 30010G15KT P6SM SCT040=



000
FTUS41 KCTP 302127 AAA
TAFBFD
TAF AMD
KBFD 302127Z 3021/3118 30012G22KT 1SM -SHSN SCT009 OVC015
      TEMPO 3021/3023 3SM -SHSN OVC025
     FM302300 31014G21KT 3SM -SHSN OVC025
     FM310100 31012G22KT P6SM SCT025 BKN040
     FM310800 31007KT P6SM SCT025 BKN040=



000
FTUS41 KCTP 302127 AAA
TAFBFD
TAF AMD
KBFD 302127Z 3021/3118 30012G22KT 1SM -SHSN SCT009 OVC015
      TEMPO 3021/3023 3SM -SHSN OVC025
     FM302300 31014G21KT 3SM -SHSN OVC025
     FM310100 31012G22KT P6SM SCT025 BKN040
     FM310800 31007KT P6SM SCT025 BKN040=



000
FTUS41 KCTP 302126 AAA
TAFJST
TAF AMD
KJST 302126Z 3021/3118 30020G32KT 1/4SM +SHSN BKN013 OVC025
      TEMPO 3021/3023 3SM -SHSN OVC025
     FM302300 31014G24KT 3SM -SHSN OVC025
     FM310100 31012G22KT P6SM SCT025 BKN040=



000
FTUS41 KCTP 302126 AAA
TAFJST
TAF AMD
KJST 302126Z 3021/3118 30020G32KT 1/4SM +SHSN BKN013 OVC025
      TEMPO 3021/3023 3SM -SHSN OVC025
     FM302300 31014G24KT 3SM -SHSN OVC025
     FM310100 31012G22KT P6SM SCT025 BKN040=



000
FTUS41 KCTP 301730
TAFIPT
TAF
KIPT 301730Z 3018/3118 29011G19KT P6SM VCSH BKN050
     FM302100 30015G28KT P6SM BKN050
     FM310100 31012G22KT P6SM SKC=



000
FTUS41 KCTP 301730
TAFJST
TAF
KJST 301730Z 3018/3118 30020G26KT 3/4SM -SHSN SCT008 OVC015
      TEMPO 3018/3021 3SM -SHSN OVC025
     FM302100 31014G24KT 3SM -SHSN OVC025
     FM310100 31012G22KT P6SM SCT025 BKN040=



000
FTUS41 KCTP 301730
TAFMDT
TAF
KMDT 301730Z 3018/3118 32014G26KT P6SM BKN050
     FM310100 31012G22KT P6SM SKC=



000
FTUS41 KCTP 301730
TAFUNV
TAF
KUNV 301730Z 3018/3118 31015G23KT P6SM VCSH BKN025 OVC035
      TEMPO 3018/3021 3SM -SHSN BKN015 OVC025
     FM302100 31012G23KT P6SM SCT025 BKN040
     FM310000 30010G15KT P6SM SCT040=



000
FTUS41 KCTP 301730
TAFAOO
TAF
KAOO 301730Z 3018/3118 32013G21KT P6SM VCSH OVC021
     FM302100 30018G30KT P6SM BKN040
     FM310000 30010G15KT P6SM SCT040=



000
FTUS41 KCTP 301730
TAFBFD
TAF
KBFD 301730Z 3018/3118 30012G22KT 1SM -SHSN SCT009 OVC015
      TEMPO 3018/3021 3SM -SHSN OVC025
     FM302100 31014G21KT 3SM -SHSN OVC025
     FM310100 31012G22KT P6SM SCT025 BKN040
     FM310800 31007KT P6SM SCT025 BKN040=



000
FTUS41 KCTP 301730
TAFMDT
TAF
KMDT 301730Z 3018/3118 32014G26KT P6SM BKN050
     FM310100 31012G22KT P6SM SKC=



000
FTUS41 KCTP 301730
TAFIPT
TAF
KIPT 301730Z 3018/3118 29011G19KT P6SM VCSH BKN050
     FM302100 30015G28KT P6SM BKN050
     FM310100 31012G22KT P6SM SKC=



000
FTUS41 KCTP 301730
TAFUNV
TAF
KUNV 301730Z 3018/3118 31015G23KT P6SM VCSH BKN025 OVC035
      TEMPO 3018/3021 3SM -SHSN BKN015 OVC025
     FM302100 31012G23KT P6SM SCT025 BKN040
     FM310000 30010G15KT P6SM SCT040=



000
FTUS41 KCTP 301730
TAFJST
TAF
KJST 301730Z 3018/3118 30020G26KT 3/4SM -SHSN SCT008 OVC015
      TEMPO 3018/3021 3SM -SHSN OVC025
     FM302100 31014G24KT 3SM -SHSN OVC025
     FM310100 31012G22KT P6SM SCT025 BKN040=



000
FTUS41 KCTP 301730
TAFBFD
TAF
KBFD 301730Z 3018/3118 30012G22KT 1SM -SHSN SCT009 OVC015
      TEMPO 3018/3021 3SM -SHSN OVC025
     FM302100 31014G21KT 3SM -SHSN OVC025
     FM310100 31012G22KT P6SM SCT025 BKN040
     FM310800 31007KT P6SM SCT025 BKN040=



000
FTUS41 KCTP 301730
TAFAOO
TAF
KAOO 301730Z 3018/3118 32013G21KT P6SM VCSH OVC021
     FM302100 30018G30KT P6SM BKN040
     FM310000 30010G15KT P6SM SCT040=



000
FTUS41 KCTP 301513 AAA
TAFUNV
TAF AMD
KUNV 301513Z 3015/3112 31015G23KT P6SM VCSH BKN025 OVC035
     FM301900 31012G23KT P6SM SCT025 BKN040
     FM310000 30014KT P6SM SKC
     FM310200 30007KT P6SM SKC=



000
FTUS41 KCTP 301513 AAB
TAFIPT
TAF AMD
KIPT 301513Z 3015/3112 29011G19KT P6SM VCSH BKN050
     FM302100 30015G28KT P6SM BKN050
     FM310100 31010KT P6SM SKC=



000
FTUS41 KCTP 301513 AAB
TAFIPT
TAF AMD
KIPT 301513Z 3015/3112 29011G19KT P6SM VCSH BKN050
     FM302100 30015G28KT P6SM BKN050
     FM310100 31010KT P6SM SKC=



000
FTUS41 KCTP 301513 AAB
TAFJST
TAF AMD
KJST 301513Z 3015/3112 30020G26KT 1/2SM SHSN SCT008 OVC013
      TEMPO 3015/3018 1 1/2SM -SHSN OVC008
     FM301800 30014G26KT 3SM -SHSN OVC015
     FM302100 30015G25KT P6SM VCSH BKN050
     FM310300 30015KT P6SM SCT250=



000
FTUS41 KCTP 301513 AAA
TAFAOO
TAF AMD
KAOO 301513Z 3015/3112 32013G21KT P6SM VCSH OVC021
     FM302100 30018G30KT P6SM BKN040
     FM310000 30014KT P6SM SKC
     FM310200 30007KT P6SM SKC=



000
FTUS41 KCTP 301513 AAA
TAFAOO
TAF AMD
KAOO 301513Z 3015/3112 32013G21KT P6SM VCSH OVC021
     FM302100 30018G30KT P6SM BKN040
     FM310000 30014KT P6SM SKC
     FM310200 30007KT P6SM SKC=



000
FTUS41 KCTP 301513 AAB
TAFMDT
TAF AMD
KMDT 301513Z 3015/3112 32014G22KT P6SM BKN050
     FM302100 31020G30KT P6SM BKN070
     FM310100 31010KT P6SM SKC=



000
FTUS41 KCTP 301513 AAB
TAFJST
TAF AMD
KJST 301513Z 3015/3112 30020G26KT 1/2SM SHSN SCT008 OVC013
      TEMPO 3015/3018 1 1/2SM -SHSN OVC008
     FM301800 30014G26KT 3SM -SHSN OVC015
     FM302100 30015G25KT P6SM VCSH BKN050
     FM310300 30015KT P6SM SCT250=



000
FTUS41 KCTP 301513 AAA
TAFUNV
TAF AMD
KUNV 301513Z 3015/3112 31015G23KT P6SM VCSH BKN025 OVC035
     FM301900 31012G23KT P6SM SCT025 BKN040
     FM310000 30014KT P6SM SKC
     FM310200 30007KT P6SM SKC=



000
FTUS41 KCTP 301513 AAB
TAFBFD
TAF AMD
KBFD 301513Z 3015/3112 30012G22KT 1SM -SHSN SCT009 OVC015
      TEMPO 3015/3018 1 1/2SM -SHSN OVC008
     FM301800 31014G21KT 3SM -SHSN OVC015
     FM302300 31015G25KT P6SM SCT025 BKN100
     FM310100 31012G22KT P6SM SCT025=



000
FTUS41 KCTP 301513 AAB
TAFMDT
TAF AMD
KMDT 301513Z 3015/3112 32014G22KT P6SM BKN050
     FM302100 31020G30KT P6SM BKN070
     FM310100 31010KT P6SM SKC=



000
FTUS41 KCTP 301513 AAB
TAFBFD
TAF AMD
KBFD 301513Z 3015/3112 30012G22KT 1SM -SHSN SCT009 OVC015
      TEMPO 3015/3018 1 1/2SM -SHSN OVC008
     FM301800 31014G21KT 3SM -SHSN OVC015
     FM302300 31015G25KT P6SM SCT025 BKN100
     FM310100 31012G22KT P6SM SCT025=



000
FTUS41 KCTP 301443 AAA
TAFJST
TAF AMD
KJST 301443Z 3015/3112 30020G26KT 1/2SM SHSN SCT008 OVC013
      TEMPO 3015/3017 1 1/2SM -SHSN OVC008
     FM301700 30014G26KT 3SM -SHSN OVC015
     FM302100 30015G25KT P6SM VCSH BKN050
     FM310300 30015KT P6SM SCT250=



000
FTUS41 KCTP 301443 AAA
TAFJST
TAF AMD
KJST 301443Z 3015/3112 30020G26KT 1/2SM SHSN SCT008 OVC013
      TEMPO 3015/3017 1 1/2SM -SHSN OVC008
     FM301700 30014G26KT 3SM -SHSN OVC015
     FM302100 30015G25KT P6SM VCSH BKN050
     FM310300 30015KT P6SM SCT250=



000
FTUS41 KCTP 301336 AAA
TAFBFD
TAF AMD
KBFD 301336Z 3014/3112 30012G22KT 1SM -SHSN SCT009 OVC015
     FM301700 31014G21KT 4SM -SHSN OVC015
     FM302300 31015G25KT P6SM SCT025 BKN100
     FM310100 31012G22KT P6SM SCT025=



000
FTUS41 KCTP 301336 AAA
TAFBFD
TAF AMD
KBFD 301336Z 3014/3112 30012G22KT 1SM -SHSN SCT009 OVC015
     FM301700 31014G21KT 4SM -SHSN OVC015
     FM302300 31015G25KT P6SM SCT025 BKN100
     FM310100 31012G22KT P6SM SCT025=



000
FTUS41 KCTP 301334 AAA
TAFMDT
TAF AMD
KMDT 301334Z 3014/3112 30010G18KT P6SM SCT040 BKN050
     FM301500 32014G25KT P6SM BKN050
     FM302100 31020G30KT P6SM BKN070
     FM310100 31010KT P6SM SKC=



000
FTUS41 KCTP 301334 AAA
TAFMDT
TAF AMD
KMDT 301334Z 3014/3112 30010G18KT P6SM SCT040 BKN050
     FM301500 32014G25KT P6SM BKN050
     FM302100 31020G30KT P6SM BKN070
     FM310100 31010KT P6SM SKC=



000
FTUS41 KCTP 301334 AAA
TAFIPT
TAF AMD
KIPT 301334Z 3014/3112 31008KT P6SM SCT040 BKN080
     FM301500 29011G19KT P6SM BKN050
     FM302100 30015G28KT P6SM BKN050
     FM310100 31010KT P6SM SKC=



000
FTUS41 KCTP 301334 AAA
TAFIPT
TAF AMD
KIPT 301334Z 3014/3112 31008KT P6SM SCT040 BKN080
     FM301500 29011G19KT P6SM BKN050
     FM302100 30015G28KT P6SM BKN050
     FM310100 31010KT P6SM SKC=



000
FTUS41 KCTP 301159 RRA
TAFAOO
TAF
KAOO 301159Z 3012/3112 32013G21KT P6SM OVC021
     FM301500 30012G22KT P6SM VCSH SCT025 BKN040
     FM302100 30018G30KT P6SM BKN040
     FM310000 30014KT P6SM SKC
     FM310200 30007KT P6SM SKC=



000
FTUS41 KCTP 301159 RRA
TAFAOO
TAF
KAOO 301159Z 3012/3112 32013G21KT P6SM OVC021
     FM301500 30012G22KT P6SM VCSH SCT025 BKN040
     FM302100 30018G30KT P6SM BKN040
     FM310000 30014KT P6SM SKC
     FM310200 30007KT P6SM SKC=



000
FTUS41 KCTP 301159 RRA
TAFUNV
TAF
KUNV 301159Z 3012/3112 31012KT P6SM SCT021 OVC070
     FM301500 31015G23KT P6SM OVC035
     FM302100 31020G30KT P6SM BKN040
     FM310000 30014KT P6SM SKC
     FM310200 30007KT P6SM SKC=



000
FTUS41 KCTP 301159 RRA
TAFUNV
TAF
KUNV 301159Z 3012/3112 31012KT P6SM SCT021 OVC070
     FM301500 31015G23KT P6SM OVC035
     FM302100 31020G30KT P6SM BKN040
     FM310000 30014KT P6SM SKC
     FM310200 30007KT P6SM SKC=



000
FTUS41 KCTP 301157
TAFJST
TAF
KJST 301157Z 3012/3112 30020G26KT 1SM -SN BR OVC008
     FM301400 29015G28KT 3SM -SHSN BKN015
      TEMPO 3014/3016 4SM -SN BR BKN025
     FM301600 30014G26KT 4SM -SN BR OVC025
     FM302100 30015G25KT P6SM VCSH BKN050
     FM310300 30015KT P6SM SCT250=



000
FTUS41 KCTP 301157
TAFMDT
TAF
KMDT 301157Z 3012/3112 30007KT 4SM -SN VCSH BKN030 OVC060
     FM301400 32014G25KT P6SM BKN050
     FM302100 31020G30KT P6SM BKN070
     FM310100 31010KT P6SM SKC=



000
FTUS41 KCTP 301157
TAFBFD
TAF
KBFD 301157Z 3012/3112 30011KT 2SM -SN BR BKN009 BKN013 OVC020
     FM301500 31014G21KT 4SM -SHSN OVC015
     FM301800 31015G25KT P6SM SCT025 BKN100
     FM310100 31012G22KT P6SM SCT025=



000
FTUS41 KCTP 301157
TAFUNV
TAF
KUNV 301157Z 3012/3112 29008KT 1SM -SN BR OVC021
     FM301500 31015G23KT P6SM OVC035
     FM302100 31020G30KT P6SM BKN040
     FM310000 30014KT P6SM SKC
     FM310200 30007KT P6SM SKC=



000
FTUS41 KCTP 301157
TAFIPT
TAF
KIPT 301157Z 3012/3112 31003KT 4SM -SN BR VCSH FEW006 SCT015 OVC030
     FM301400 29011G19KT P6SM OVC050
     FM302100 30015G28KT P6SM BKN040
     FM310100 31010KT P6SM SKC=



000
FTUS41 KCTP 301157
TAFAOO
TAF
KAOO 301157Z 3012/3112 30012KT P6SM VCSH BKN021 OVC027
     FM301500 30012G22KT P6SM VCSH SCT025 BKN040
     FM302100 30018G30KT P6SM BKN040
     FM310000 30014KT P6SM SKC
     FM310200 30007KT P6SM SKC=



000
FTUS41 KCTP 301157
TAFBFD
TAF
KBFD 301157Z 3012/3112 30011KT 2SM -SN BR BKN009 BKN013 OVC020
     FM301500 31014G21KT 4SM -SHSN OVC015
     FM301800 31015G25KT P6SM SCT025 BKN100
     FM310100 31012G22KT P6SM SCT025=



000
FTUS41 KCTP 301157
TAFMDT
TAF
KMDT 301157Z 3012/3112 30007KT 4SM -SN VCSH BKN030 OVC060
     FM301400 32014G25KT P6SM BKN050
     FM302100 31020G30KT P6SM BKN070
     FM310100 31010KT P6SM SKC=



000
FTUS41 KCTP 301157
TAFJST
TAF
KJST 301157Z 3012/3112 30020G26KT 1SM -SN BR OVC008
     FM301400 29015G28KT 3SM -SHSN BKN015
      TEMPO 3014/3016 4SM -SN BR BKN025
     FM301600 30014G26KT 4SM -SN BR OVC025
     FM302100 30015G25KT P6SM VCSH BKN050
     FM310300 30015KT P6SM SCT250=



000
FTUS41 KCTP 301157
TAFUNV
TAF
KUNV 301157Z 3012/3112 29008KT 1SM -SN BR OVC021
     FM301500 31015G23KT P6SM OVC035
     FM302100 31020G30KT P6SM BKN040
     FM310000 30014KT P6SM SKC
     FM310200 30007KT P6SM SKC=



000
FTUS41 KCTP 301157
TAFIPT
TAF
KIPT 301157Z 3012/3112 31003KT 4SM -SN BR VCSH FEW006 SCT015 OVC030
     FM301400 29011G19KT P6SM OVC050
     FM302100 30015G28KT P6SM BKN040
     FM310100 31010KT P6SM SKC=



000
FTUS41 KCTP 301157
TAFAOO
TAF
KAOO 301157Z 3012/3112 30012KT P6SM VCSH BKN021 OVC027
     FM301500 30012G22KT P6SM VCSH SCT025 BKN040
     FM302100 30018G30KT P6SM BKN040
     FM310000 30014KT P6SM SKC
     FM310200 30007KT P6SM SKC=



000
FTUS41 KCTP 301031 AAC
TAFIPT
TAF AMD
KIPT 301031Z 3011/3106 27005KT 3/4SM -SN BR VV011
     FM301100 29008KT 4SM -SN BR BKN011
     FM301200 29008KT P6SM VCSH SCT011
     FM301400 29011G19KT P6SM OVC050
     FM302100 30015G28KT P6SM BKN040=



000
FTUS41 KCTP 301031 AAC
TAFIPT
TAF AMD
KIPT 301031Z 3011/3106 27005KT 3/4SM -SN BR VV011
     FM301100 29008KT 4SM -SN BR BKN011
     FM301200 29008KT P6SM VCSH SCT011
     FM301400 29011G19KT P6SM OVC050
     FM302100 30015G28KT P6SM BKN040=



000
FTUS41 KCTP 300935 AAC
TAFMDT
TAF AMD
KMDT 300935Z 3010/3106 31009KT P6SM VCSH FEW035 BKN045 OVC080
     FM301400 32014G25KT P6SM BKN050
     FM302100 31020G30KT P6SM BKN070=



000
FTUS41 KCTP 300935 AAB
TAFAOO
TAF AMD
KAOO 300935Z 3010/3106 30009KT 3SM -SN BR FEW013 SCT019 OVC035
     FM301200 31015G23KT P6SM OVC035
     FM302100 30018G30KT P6SM BKN040=



000
FTUS41 KCTP 300935 AAC
TAFUNV
TAF AMD
KUNV 300935Z 3010/3106 27009KT P6SM -SN SCT018 BKN030 OVC050
     FM301500 31015G23KT P6SM OVC035
     FM302100 31020G30KT P6SM BKN040=



000
FTUS41 KCTP 300935 AAA
TAFJST
TAF AMD
KJST 300935Z 3010/3106 28012G17KT 2SM -SN BR BKN005 OVC009
      TEMPO 3010/3012 3SM -SN OVC003
     FM301200 29013G20KT 3SM -SHSN OVC009
     FM301500 29015G28KT 3SM -SHSN OVC015
     FM310200 30014G26KT P6SM VCSH OVC025=



000
FTUS41 KCTP 300935 AAB
TAFIPT
TAF AMD
KIPT 300935Z 3010/3106 27004KT 4SM -SN BR OVC010
     FM301500 29011G19KT P6SM OVC050
     FM302100 30015G28KT P6SM BKN040=



000
FTUS41 KCTP 300935 AAA
TAFBFD
TAF AMD
KBFD 300935Z 3010/3106 33014KT 2SM -SN OVC010
     FM301500 31014G21KT 3SM -SHSN OVC015
     FM310100 31012G22KT P6SM OVC025=



000
FTUS41 KCTP 300935 AAB
TAFAOO
TAF AMD
KAOO 300935Z 3010/3106 30009KT 3SM -SN BR FEW013 SCT019 OVC035
     FM301200 31015G23KT P6SM OVC035
     FM302100 30018G30KT P6SM BKN040=



000
FTUS41 KCTP 300935 AAA
TAFBFD
TAF AMD
KBFD 300935Z 3010/3106 33014KT 2SM -SN OVC010
     FM301500 31014G21KT 3SM -SHSN OVC015
     FM310100 31012G22KT P6SM OVC025=



000
FTUS41 KCTP 300935 AAA
TAFJST
TAF AMD
KJST 300935Z 3010/3106 28012G17KT 2SM -SN BR BKN005 OVC009
      TEMPO 3010/3012 3SM -SN OVC003
     FM301200 29013G20KT 3SM -SHSN OVC009
     FM301500 29015G28KT 3SM -SHSN OVC015
     FM310200 30014G26KT P6SM VCSH OVC025=



000
FTUS41 KCTP 300935 AAC
TAFMDT
TAF AMD
KMDT 300935Z 3010/3106 31009KT P6SM VCSH FEW035 BKN045 OVC080
     FM301400 32014G25KT P6SM BKN050
     FM302100 31020G30KT P6SM BKN070=



000
FTUS41 KCTP 300935 AAB
TAFIPT
TAF AMD
KIPT 300935Z 3010/3106 27004KT 4SM -SN BR OVC010
     FM301500 29011G19KT P6SM OVC050
     FM302100 30015G28KT P6SM BKN040=



000
FTUS41 KCTP 300935 AAC
TAFUNV
TAF AMD
KUNV 300935Z 3010/3106 27009KT P6SM -SN SCT018 BKN030 OVC050
     FM301500 31015G23KT P6SM OVC035
     FM302100 31020G30KT P6SM BKN040=



000
FTUS41 KCTP 300815 AAB
TAFMDT
TAF AMD
KMDT 300815Z 3008/3106 31009KT P6SM -SN BKN030 BKN040 OVC050
     FM301000 31009KT P6SM VCSH OVC050
     FM301400 32014G25KT P6SM BKN050
     FM302100 31020G30KT P6SM BKN070=



000
FTUS41 KCTP 300815 AAB
TAFMDT
TAF AMD
KMDT 300815Z 3008/3106 31009KT P6SM -SN BKN030 BKN040 OVC050
     FM301000 31009KT P6SM VCSH OVC050
     FM301400 32014G25KT P6SM BKN050
     FM302100 31020G30KT P6SM BKN070=



000
FTUS41 KCTP 300811 AAB
TAFUNV
TAF AMD
KUNV 300811Z 3008/3106 28008KT 2SM -SN OVC010
     FM301000 27010KT P6SM VCSH SCT015 OVC025
     FM301500 31015G23KT P6SM OVC035
     FM302100 31020G30KT P6SM BKN040=



000
FTUS41 KCTP 300811 AAA
TAFIPT
TAF AMD
KIPT 300811Z 3008/3106 02003KT P6SM -SN OVC014
      TEMPO 3008/3009 3SM -SN BR OVC009
     FM300900 27006KT P6SM OVC015
     FM301500 29011G19KT P6SM OVC050
     FM302100 30015G28KT P6SM BKN040=



000
FTUS41 KCTP 300811 AAA
TAFIPT
TAF AMD
KIPT 300811Z 3008/3106 02003KT P6SM -SN OVC014
      TEMPO 3008/3009 3SM -SN BR OVC009
     FM300900 27006KT P6SM OVC015
     FM301500 29011G19KT P6SM OVC050
     FM302100 30015G28KT P6SM BKN040=



000
FTUS41 KCTP 300737 AAA
TAFUNV
TAF AMD
KUNV 300737Z 3008/3106 30010G18KT P6SM -SN SCT040 BKN045 OVC070
     FM300900 27010KT P6SM VCSH SCT015 OVC025
     FM301500 31015G23KT P6SM OVC035
     FM302100 31020G30KT P6SM BKN040=



000
FTUS41 KCTP 300737 AAA
TAFUNV
TAF AMD
KUNV 300737Z 3008/3106 30010G18KT P6SM -SN SCT040 BKN045 OVC070
     FM300900 27010KT P6SM VCSH SCT015 OVC025
     FM301500 31015G23KT P6SM OVC035
     FM302100 31020G30KT P6SM BKN040=



000
FTUS41 KCTP 300729 AAA
TAFMDT
TAF AMD
KMDT 300729Z 3007/3106 33005KT P6SM VCSH OVC060
     FM300800 31009KT P6SM VCSH OVC050
     FM301400 32014G25KT P6SM BKN050
     FM302100 31020G30KT P6SM BKN070=



000
FTUS41 KCTP 300729 AAA
TAFMDT
TAF AMD
KMDT 300729Z 3007/3106 33005KT P6SM VCSH OVC060
     FM300800 31009KT P6SM VCSH OVC050
     FM301400 32014G25KT P6SM BKN050
     FM302100 31020G30KT P6SM BKN070=



000
FTUS41 KCTP 300702 AAA
TAFAOO
TAF AMD
KAOO 300702Z 3007/3106 30015G22KT P6SM FEW024 BKN040 OVC045
     FM300800 30010G20KT 1SM -SN OVC005
     FM300900 27010G19KT P6SM VCSH OVC015
     FM301500 31015G23KT P6SM OVC035
     FM302100 30018G30KT P6SM BKN040=



000
FTUS41 KCTP 300702 AAA
TAFAOO
TAF AMD
KAOO 300702Z 3007/3106 30015G22KT P6SM FEW024 BKN040 OVC045
     FM300800 30010G20KT 1SM -SN OVC005
     FM300900 27010G19KT P6SM VCSH OVC015
     FM301500 31015G23KT P6SM OVC035
     FM302100 30018G30KT P6SM BKN040=



000
FTUS41 KCTP 300525
TAFMDT
TAF
KMDT 300525Z 3006/3106 11003KT P6SM VCSH BKN035 OVC060
      TEMPO 3006/3008 3SM -SN SCT012 OVC035
     FM300800 31009KT P6SM VCSH OVC050
     FM301400 32014G25KT P6SM BKN050
     FM302100 31020G30KT P6SM BKN070=



000
FTUS41 KCTP 300525
TAFAOO
TAF
KAOO 300525Z 3006/3106 23010KT 1 1/2SM -SN BR BKN019 OVC028
      TEMPO 3006/3009 1SM -SN OVC005
     FM300900 27010G19KT P6SM VCSH OVC015
     FM301500 31015G23KT P6SM OVC035
     FM302100 30018G30KT P6SM BKN040=



000
FTUS41 KCTP 300525
TAFIPT
TAF
KIPT 300525Z 3006/3106 02003KT P6SM -SN OVC014
      TEMPO 3006/3008 3SM -SNPL BR OVC009
     FM300900 27006KT P6SM OVC015
     FM301500 29011G19KT P6SM OVC050
     FM302100 30015G28KT P6SM BKN040=



000
FTUS41 KCTP 300525
TAFJST
TAF
KJST 300525Z 3006/3106 28019G28KT 6SM -SN BR BKN005 OVC011
      TEMPO 3006/3010 3/4SM -SN OVC003
     FM301000 29013G20KT 3SM -SHSN OVC009
     FM301500 29015G28KT 3SM -SHSN OVC015
     FM310200 30014G26KT P6SM VCSH OVC025=



000
FTUS41 KCTP 300525
TAFUNV
TAF
KUNV 300525Z 3006/3106 27004KT 4SM -SN BR BKN016 OVC021
      TEMPO 3006/3008 1SM -SNPL BR BKN005 OVC015
     FM300900 27010KT P6SM VCSH SCT015 OVC025
     FM301500 31015G23KT P6SM OVC035
     FM302100 31020G30KT P6SM BKN040=



000
FTUS41 KCTP 300525
TAFBFD
TAF
KBFD 300525Z 3006/3106 29012G25KT 3SM -SN BKN012 BKN017 OVC035
      TEMPO 3006/3009 1/2SM SN OVC005
     FM301500 31014G21KT 3SM -SHSN OVC015
     FM310100 31012G22KT P6SM OVC025=



000
FTUS41 KCTP 300525
TAFUNV
TAF
KUNV 300525Z 3006/3106 27004KT 4SM -SN BR BKN016 OVC021
      TEMPO 3006/3008 1SM -SNPL BR BKN005 OVC015
     FM300900 27010KT P6SM VCSH SCT015 OVC025
     FM301500 31015G23KT P6SM OVC035
     FM302100 31020G30KT P6SM BKN040=



000
FTUS41 KCTP 300525
TAFIPT
TAF
KIPT 300525Z 3006/3106 02003KT P6SM -SN OVC014
      TEMPO 3006/3008 3SM -SNPL BR OVC009
     FM300900 27006KT P6SM OVC015
     FM301500 29011G19KT P6SM OVC050
     FM302100 30015G28KT P6SM BKN040=



000
FTUS41 KCTP 300525
TAFJST
TAF
KJST 300525Z 3006/3106 28019G28KT 6SM -SN BR BKN005 OVC011
      TEMPO 3006/3010 3/4SM -SN OVC003
     FM301000 29013G20KT 3SM -SHSN OVC009
     FM301500 29015G28KT 3SM -SHSN OVC015
     FM310200 30014G26KT P6SM VCSH OVC025=



000
FTUS41 KCTP 300525
TAFBFD
TAF
KBFD 300525Z 3006/3106 29012G25KT 3SM -SN BKN012 BKN017 OVC035
      TEMPO 3006/3009 1/2SM SN OVC005
     FM301500 31014G21KT 3SM -SHSN OVC015
     FM310100 31012G22KT P6SM OVC025=



000
FTUS41 KCTP 300525
TAFAOO
TAF
KAOO 300525Z 3006/3106 23010KT 1 1/2SM -SN BR BKN019 OVC028
      TEMPO 3006/3009 1SM -SN OVC005
     FM300900 27010G19KT P6SM VCSH OVC015
     FM301500 31015G23KT P6SM OVC035
     FM302100 30018G30KT P6SM BKN040=



000
FTUS41 KCTP 300525
TAFMDT
TAF
KMDT 300525Z 3006/3106 11003KT P6SM VCSH BKN035 OVC060
      TEMPO 3006/3008 3SM -SN SCT012 OVC035
     FM300800 31009KT P6SM VCSH OVC050
     FM301400 32014G25KT P6SM BKN050
     FM302100 31020G30KT P6SM BKN070=



000
FTUS41 KCTP 300432 AAB
TAFMDT
TAF AMD
KMDT 300432Z 3005/3024 14007KT P6SM VCSH BKN045
      TEMPO 3005/3006 3SM -SN SCT012 OVC035
     FM300800 29010KT P6SM VCSH OVC050=



000
FTUS41 KCTP 300432 AAB
TAFUNV
TAF AMD
KUNV 300432Z 3005/3024 22007KT 3SM -SN SCT010 OVC025
      TEMPO 3005/3006 1SM -SNPL BR BKN005 OVC015
     FM300600 25010G18KT 4SM -SN BR OVC025
     FM300700 27010KT P6SM VCSH SCT015 OVC025
     FM301500 31015G23KT P6SM OVC050=



000
FTUS41 KCTP 300432 AAC
TAFBFD
TAF AMD
KBFD 300432Z 3005/3024 29014G26KT 2SM -SN BR SCT005 BKN015 OVC025
      TEMPO 3005/3006 1/2SM SN OVC005
     FM300600 30010G18KT 3SM -SN OVC004
     FM301500 31014G21KT 3SM -SHSN OVC015=



000
FTUS41 KCTP 300432 AAB
TAFAOO
TAF AMD
KAOO 300432Z 3005/3024 24009G18KT 3SM -SN SCT005 OVC015
      TEMPO 3005/3006 1SM -SN OVC005
     FM300600 27010G19KT P6SM VCSH OVC015
     FM301500 31015G23KT P6SM OVC050=



000
FTUS41 KCTP 300432 AAA
TAFIPT
TAF AMD
KIPT 300432Z 3005/3024 18014G35KT P6SM -SN OVC012
      TEMPO 3005/3006 3SM -SNPL BR OVC009
     FM300700 27006KT P6SM OVC015
     FM301500 29011G19KT P6SM OVC050=



000
FTUS41 KCTP 300432 AAB
TAFJST
TAF AMD
KJST 300432Z 3005/3024 27015G25KT 2SM -SN BR BKN003 OVC007
      TEMPO 3005/3006 3/4SM -SN OVC003
     FM300700 29013G20KT 3SM -SHSN OVC009
     FM301500 29014G21KT 3SM -SHSN OVC015=



000
FTUS41 KCTP 300432 AAB
TAFMDT
TAF AMD
KMDT 300432Z 3005/3024 14007KT P6SM VCSH BKN045
      TEMPO 3005/3006 3SM -SN SCT012 OVC035
     FM300800 29010KT P6SM VCSH OVC050=



000
FTUS41 KCTP 300432 AAA
TAFIPT
TAF AMD
KIPT 300432Z 3005/3024 18014G35KT P6SM -SN OVC012
      TEMPO 3005/3006 3SM -SNPL BR OVC009
     FM300700 27006KT P6SM OVC015
     FM301500 29011G19KT P6SM OVC050=



000
FTUS41 KCTP 300238 AAA
TAFAOO
TAF AMD
KAOO 300238Z 3003/3024 22007KT 3SM -SN OVC015
      TEMPO 3003/3004 3SM -FZDZ OVC009
     FM300400 27010G19KT P6SM VCSH OVC015
     FM301500 31015G23KT P6SM OVC050=



000
FTUS41 KCTP 300238 AAA
TAFAOO
TAF AMD
KAOO 300238Z 3003/3024 22007KT 3SM -SN OVC015
      TEMPO 3003/3004 3SM -FZDZ OVC009
     FM300400 27010G19KT P6SM VCSH OVC015
     FM301500 31015G23KT P6SM OVC050=



000
FTUS41 KCTP 300236 AAA
TAFJST
TAF AMD
KJST 300236Z 3003/3024 27015G25KT 1SM -SN BR OVC002
      TEMPO 3003/3004 1/4SM +SN VV002
     FM300700 29013G20KT 3SM -SHSN OVC009
     FM301500 29014G21KT 3SM -SHSN OVC015=



000
FTUS41 KCTP 300236 AAA
TAFJST
TAF AMD
KJST 300236Z 3003/3024 27015G25KT 1SM -SN BR OVC002
      TEMPO 3003/3004 1/4SM +SN VV002
     FM300700 29013G20KT 3SM -SHSN OVC009
     FM301500 29014G21KT 3SM -SHSN OVC015=



000
FTUS41 KCTP 300157 AAB
TAFBFD
TAF AMD
KBFD 300157Z 3002/3024 16005KT 1SM -SN BR OVC007
      TEMPO 3002/3004 1/2SM SNPL VV001
     FM300400 21010G18KT 1SM -SNPL BR OVC001
     FM300600 30010G18KT 3SM -SN OVC004
     FM301500 31014G21KT 3SM -SHSN OVC015=



000
FTUS41 KCTP 300157 AAB
TAFBFD
TAF AMD
KBFD 300157Z 3002/3024 16005KT 1SM -SN BR OVC007
      TEMPO 3002/3004 1/2SM SNPL VV001
     FM300400 21010G18KT 1SM -SNPL BR OVC001
     FM300600 30010G18KT 3SM -SN OVC004
     FM301500 31014G21KT 3SM -SHSN OVC015=



000
FTUS41 KCTP 300155 AAA
TAFUNV
TAF AMD
KUNV 300155Z 3002/3024 22007KT 3SM -SN OVC012
      TEMPO 3002/3004 1SM -FZDZSNPL BR BKN005 OVC015
     FM300400 25010G18KT 4SM -SN BR OVC015
     FM300600 27010KT P6SM VCSH SCT015 OVC025
     FM301500 31015G23KT P6SM OVC050=



000
FTUS41 KCTP 300155 AAA
TAFUNV
TAF AMD
KUNV 300155Z 3002/3024 22007KT 3SM -SN OVC012
      TEMPO 3002/3004 1SM -FZDZSNPL BR BKN005 OVC015
     FM300400 25010G18KT 4SM -SN BR OVC015
     FM300600 27010KT P6SM VCSH SCT015 OVC025
     FM301500 31015G23KT P6SM OVC050=



000
FTUS41 KCTP 300030 AAA
TAFMDT
TAF AMD
KMDT 300030Z 3001/3024 14007KT P6SM VCSH BKN012 OVC025
      TEMPO 3001/3002 1SM -SHSNPL SCT012 OVC035
     FM300200 15008KT 5SM BR VCSH OVC025
     FM300800 29010KT P6SM VCSH OVC050=



000
FTUS41 KCTP 300030 AAA
TAFMDT
TAF AMD
KMDT 300030Z 3001/3024 14007KT P6SM VCSH BKN012 OVC025
      TEMPO 3001/3002 1SM -SHSNPL SCT012 OVC035
     FM300200 15008KT 5SM BR VCSH OVC025
     FM300800 29010KT P6SM VCSH OVC050=



000
FTUS41 KCTP 300017 AAA
TAFBFD
TAF AMD
KBFD 300017Z 3000/3024 18005KT 2SM -FZDZ BR OVC004
      TEMPO 3000/3001 1/2SM SNPL VV001
     FM300100 21010G18KT 1SM -SNPL BR OVC001
     FM300300 30010G18KT 3SM -SN OVC004
     FM301500 31014G21KT 3SM -SHSN OVC015=



000
FTUS41 KCTP 300017 AAA
TAFBFD
TAF AMD
KBFD 300017Z 3000/3024 18005KT 2SM -FZDZ BR OVC004
      TEMPO 3000/3001 1/2SM SNPL VV001
     FM300100 21010G18KT 1SM -SNPL BR OVC001
     FM300300 30010G18KT 3SM -SN OVC004
     FM301500 31014G21KT 3SM -SHSN OVC015=



000
FTUS41 KCTP 292346
TAFJST
TAF
KJST 292346Z 3000/3024 19008KT 2SM -SNPL BR OVC004
      TEMPO 3000/3002 3/4SM -SN BR BKN009 OVC015
     FM300700 28013G20KT 3SM -SHSN OVC009
     FM301500 29014G21KT 3SM -SHSN OVC015=



000
FTUS41 KCTP 292346
TAFUNV
TAF
KUNV 292346Z 3000/3024 22007KT P6SM -SN OVC010
      TEMPO 3000/3002 1SM -FZDZSNPL BR BKN005 OVC015
     FM300600 27010KT P6SM VCSH SCT015 OVC025
     FM301500 31015G23KT P6SM OVC050=



000
FTUS41 KCTP 292346
TAFBFD
TAF
KBFD 292346Z 3000/3024 17007KT 2SM -SN BR OVC004
      TEMPO 3000/3002 1/2SM SNPL VV001
     FM300700 30010G18KT 3SM -SN OVC004
     FM301500 31014G21KT 3SM -SHSN OVC015=



000
FTUS41 KCTP 292346
TAFIPT
TAF
KIPT 292346Z 3000/3024 18014G35KT P6SM -SN OVC015
     FM300700 27006KT P6SM OVC015
     FM301500 29011G19KT P6SM OVC050=



000
FTUS41 KCTP 292346
TAFMDT
TAF
KMDT 292346Z 3000/3024 14007KT 5SM -SN SCT015 BKN025
      TEMPO 3000/3002 1SM -SHSNPL SCT025 OVC035
     FM300200 15008KT 5SM BR VCSH OVC025
     FM300800 29010KT P6SM VCSH OVC050=



000
FTUS41 KCTP 292346
TAFAOO
TAF
KAOO 292346Z 3000/3024 20007KT P6SM -SN OVC015
      TEMPO 3000/3002 3SM -FZDZ OVC009
     FM300600 27010KT P6SM VCSH OVC015
     FM301500 31015G23KT P6SM OVC050=



000
FTUS41 KCTP 292346
TAFMDT
TAF
KMDT 292346Z 3000/3024 14007KT 5SM -SN SCT015 BKN025
      TEMPO 3000/3002 1SM -SHSNPL SCT025 OVC035
     FM300200 15008KT 5SM BR VCSH OVC025
     FM300800 29010KT P6SM VCSH OVC050=



000
FTUS41 KCTP 292346
TAFUNV
TAF
KUNV 292346Z 3000/3024 22007KT P6SM -SN OVC010
      TEMPO 3000/3002 1SM -FZDZSNPL BR BKN005 OVC015
     FM300600 27010KT P6SM VCSH SCT015 OVC025
     FM301500 31015G23KT P6SM OVC050=



000
FTUS41 KCTP 292346
TAFJST
TAF
KJST 292346Z 3000/3024 19008KT 2SM -SNPL BR OVC004
      TEMPO 3000/3002 3/4SM -SN BR BKN009 OVC015
     FM300700 28013G20KT 3SM -SHSN OVC009
     FM301500 29014G21KT 3SM -SHSN OVC015=



000
FTUS41 KCTP 292346
TAFBFD
TAF
KBFD 292346Z 3000/3024 17007KT 2SM -SN BR OVC004
      TEMPO 3000/3002 1/2SM SNPL VV001
     FM300700 30010G18KT 3SM -SN OVC004
     FM301500 31014G21KT 3SM -SHSN OVC015=



000
FTUS41 KCTP 292346
TAFIPT
TAF
KIPT 292346Z 3000/3024 18014G35KT P6SM -SN OVC015
     FM300700 27006KT P6SM OVC015
     FM301500 29011G19KT P6SM OVC050=



000
FTUS41 KCTP 292346
TAFAOO
TAF
KAOO 292346Z 3000/3024 20007KT P6SM -SN OVC015
      TEMPO 3000/3002 3SM -FZDZ OVC009
     FM300600 27010KT P6SM VCSH OVC015
     FM301500 31015G23KT P6SM OVC050=



000
FTUS41 KCTP 292256 AAB
TAFAOO
TAF AMD
KAOO 292256Z 2923/3018 21006KT 2SM -SN BR OVC008
      TEMPO 2923/3001 1/2SM SN FZFG OVC006
     FM300600 27010KT P6SM VCSH OVC015
     FM301500 31015G23KT P6SM OVC050=



000
FTUS41 KCTP 292256 AAB
TAFAOO
TAF AMD
KAOO 292256Z 2923/3018 21006KT 2SM -SN BR OVC008
      TEMPO 2923/3001 1/2SM SN FZFG OVC006
     FM300600 27010KT P6SM VCSH OVC015
     FM301500 31015G23KT P6SM OVC050=



000
FTUS41 KCTP 292156 AAB
TAFMDT
TAF AMD
KMDT 292156Z 2922/3018 18012G20KT 2SM -SN SCT025 OVC035
      TEMPO 2922/2923 1SM -SN BKN025
     FM300000 15008KT 5SM BR VCSH OVC025
     FM300800 29010KT P6SM VCSH OVC050=



000
FTUS41 KCTP 292053 AAA
TAFIPT
TAF AMD
KIPT 292053Z 2921/3018 11008G16KT 3SM -SN BR OVC025
     FM292300 11008G16KT 2SM -SN BR OVC015
     FM300700 27006KT P6SM OVC015
     FM301500 29011G19KT P6SM OVC050=



000
FTUS41 KCTP 292053 AAA
TAFIPT
TAF AMD
KIPT 292053Z 2921/3018 11008G16KT 3SM -SN BR OVC025
     FM292300 11008G16KT 2SM -SN BR OVC015
     FM300700 27006KT P6SM OVC015
     FM301500 29011G19KT P6SM OVC050=



000
FTUS41 KCTP 292049 AAA
TAFMDT
TAF AMD
KMDT 292049Z 2921/3018 14009KT P6SM OVC060
     FM292130 15009KT 2SM -SN OVC025
     FM300000 15008KT 5SM BR VCSH OVC025
     FM300800 29010KT P6SM VCSH OVC050=



000
FTUS41 KCTP 292049 AAA
TAFMDT
TAF AMD
KMDT 292049Z 2921/3018 14009KT P6SM OVC060
     FM292130 15009KT 2SM -SN OVC025
     FM300000 15008KT 5SM BR VCSH OVC025
     FM300800 29010KT P6SM VCSH OVC050=



000
FTUS41 KCTP 292045 AAA
TAFUNV
TAF AMD
KUNV 292045Z 2921/3018 20007KT 1SM -SN BR BKN009 OVC015
     FM292100 20007KT 2SM -SN BR OVC015
     FM300600 27010KT P6SM VCSH SCT015 OVC025
     FM301500 31015G23KT P6SM OVC050=



000
FTUS41 KCTP 292045 AAA
TAFUNV
TAF AMD
KUNV 292045Z 2921/3018 20007KT 1SM -SN BR BKN009 OVC015
     FM292100 20007KT 2SM -SN BR OVC015
     FM300600 27010KT P6SM VCSH SCT015 OVC025
     FM301500 31015G23KT P6SM OVC050=



000
FTUS41 KCTP 292044 AAA
TAFAOO
TAF AMD
KAOO 292044Z 2921/3018 18009KT 2SM -SN BR SCT009 OVC015
     FM300600 27010KT P6SM VCSH OVC015
     FM301500 31015G23KT P6SM OVC050=



000
FTUS41 KCTP 292044 AAA
TAFAOO
TAF AMD
KAOO 292044Z 2921/3018 18009KT 2SM -SN BR SCT009 OVC015
     FM300600 27010KT P6SM VCSH OVC015
     FM301500 31015G23KT P6SM OVC050=



000
FTUS41 KCTP 292037 AAB
TAFJST
TAF AMD
KJST 292037Z 2921/3018 16010G20KT 3SM -SN BR OVC012
     FM292130 18009KT 1SM -SN BR BKN009 OVC015
     FM300700 28013G20KT 3SM -SHSN OVC009
     FM301500 29014G21KT 3SM -SHSN OVC015=



000
FTUS41 KCTP 292037 AAB
TAFJST
TAF AMD
KJST 292037Z 2921/3018 16010G20KT 3SM -SN BR OVC012
     FM292130 18009KT 1SM -SN BR BKN009 OVC015
     FM300700 28013G20KT 3SM -SHSN OVC009
     FM301500 29014G21KT 3SM -SHSN OVC015=



000
FTUS41 KCTP 292035 AAA
TAFBFD
TAF AMD
KBFD 292035Z 2921/3018 18010G20KT 3/4SM -SN BR OVC005
     FM300700 30010G18KT 3SM -SN OVC004
     FM301500 31014G21KT 3SM -SHSN OVC015=



000
FTUS41 KCTP 292035 AAA
TAFBFD
TAF AMD
KBFD 292035Z 2921/3018 18010G20KT 3/4SM -SN BR OVC005
     FM300700 30010G18KT 3SM -SN OVC004
     FM301500 31014G21KT 3SM -SHSN OVC015=



000
FTUS41 KCTP 291949 AAA
TAFJST
TAF AMD
KJST 291949Z 2920/3018 18009KT 1SM -SN BR BKN009 OVC015
     FM300700 28013G20KT 3SM -SHSN OVC009
     FM301500 29014G21KT 3SM -SHSN OVC015=



000
FTUS41 KCTP 291949 AAA
TAFJST
TAF AMD
KJST 291949Z 2920/3018 18009KT 1SM -SN BR BKN009 OVC015
     FM300700 28013G20KT 3SM -SHSN OVC009
     FM301500 29014G21KT 3SM -SHSN OVC015=



000
FTUS41 KCTP 291732
TAFMDT
TAF
KMDT 291732Z 2918/3018 13004KT P6SM OVC100
     FM292300 16005KT 2SM -SN OVC025
     FM300800 29010KT P6SM VCSH OVC050=



000
FTUS41 KCTP 291732
TAFIPT
TAF
KIPT 291732Z 2918/3018 10004KT P6SM OVC100
     FM292100 11008G16KT 2SM -SN BR OVC025
     FM300700 27006KT P6SM OVC015
     FM301500 29011G19KT P6SM OVC050=



000
FTUS41 KCTP 291732
TAFAOO
TAF
KAOO 291732Z 2918/3018 17008KT P6SM OVC070
     FM292000 18009KT 2SM -FZRASN BR OVC015
     FM292100 18010KT 1SM -SN BR OVC009
     FM300600 27010KT P6SM VCSH OVC015
     FM301500 31015G23KT P6SM OVC050=



000
FTUS41 KCTP 291732
TAFJST
TAF
KJST 291732Z 2918/3018 15012G18KT P6SM OVC060
     FM291900 18009KT 1 1/2SM -FZRASN BR OVC015
     FM292000 18010KT 1SM -SN BR OVC009
     FM300700 28013G20KT 3SM -SHSN OVC009
     FM301500 29014G21KT 3SM -SHSN OVC015=



000
FTUS41 KCTP 291732
TAFBFD
TAF
KBFD 291732Z 2918/3018 17010G17KT 2SM -SN OVC050
     FM291900 16009G19KT 1SM -SN BR OVC015
     FM292100 18010G20KT 1SM -SN BR OVC003
     FM300700 30010G18KT 3SM -SN OVC004
     FM301500 31014G21KT 3SM -SHSN OVC015=



000
FTUS41 KCTP 291732
TAFMDT
TAF
KMDT 291732Z 2918/3018 13004KT P6SM OVC100
     FM292300 16005KT 2SM -SN OVC025
     FM300800 29010KT P6SM VCSH OVC050=



000
FTUS41 KCTP 291732
TAFUNV
TAF
KUNV 291732Z 2918/3018 VRB03KT P6SM OVC070
     FM292000 19007KT 1 1/2SM -SN BR BKN009 OVC015
     FM300600 27010KT P6SM VCSH SCT015 OVC025
     FM301500 31015G23KT P6SM OVC050=



000
FTUS41 KCTP 291732
TAFJST
TAF
KJST 291732Z 2918/3018 15012G18KT P6SM OVC060
     FM291900 18009KT 1 1/2SM -FZRASN BR OVC015
     FM292000 18010KT 1SM -SN BR OVC009
     FM300700 28013G20KT 3SM -SHSN OVC009
     FM301500 29014G21KT 3SM -SHSN OVC015=



000
FTUS41 KCTP 291732
TAFUNV
TAF
KUNV 291732Z 2918/3018 VRB03KT P6SM OVC070
     FM292000 19007KT 1 1/2SM -SN BR BKN009 OVC015
     FM300600 27010KT P6SM VCSH SCT015 OVC025
     FM301500 31015G23KT P6SM OVC050=



000
FTUS41 KCTP 291732
TAFBFD
TAF
KBFD 291732Z 2918/3018 17010G17KT 2SM -SN OVC050
     FM291900 16009G19KT 1SM -SN BR OVC015
     FM292100 18010G20KT 1SM -SN BR OVC003
     FM300700 30010G18KT 3SM -SN OVC004
     FM301500 31014G21KT 3SM -SHSN OVC015=



000
FTUS41 KCTP 291732
TAFIPT
TAF
KIPT 291732Z 2918/3018 10004KT P6SM OVC100
     FM292100 11008G16KT 2SM -SN BR OVC025
     FM300700 27006KT P6SM OVC015
     FM301500 29011G19KT P6SM OVC050=



000
FTUS41 KCTP 291732
TAFAOO
TAF
KAOO 291732Z 2918/3018 17008KT P6SM OVC070
     FM292000 18009KT 2SM -FZRASN BR OVC015
     FM292100 18010KT 1SM -SN BR OVC009
     FM300600 27010KT P6SM VCSH OVC015
     FM301500 31015G23KT P6SM OVC050=



000
FTUS41 KCTP 291550 AAA
TAFJST
TAF AMD
KJST 291550Z 2916/3012 17012G18KT P6SM OVC060
     FM291900 18009KT 1 1/2SM -FZRASN BR OVC015
     FM292000 18010KT 1SM -SN BR OVC009
     FM300700 28013G20KT 3SM -SHSN OVC009=



000
FTUS41 KCTP 291550 AAA
TAFIPT
TAF AMD
KIPT 291550Z 2916/3012 10004KT P6SM OVC100
     FM292100 11008G16KT 2SM -SN BR OVC025
     FM300700 27006KT P6SM OVC015=



000
FTUS41 KCTP 291550 AAA
TAFUNV
TAF AMD
KUNV 291550Z 2916/3012 VRB03KT P6SM OVC070
     FM291900 19007KT 1 1/2SM -SN BR OVC015
     FM292100 19008KT 1 1/2SM -SN BR OVC009
     FM300600 27010KT P6SM VCSH SCT015 OVC025=



000
FTUS41 KCTP 291550 AAA
TAFAOO
TAF AMD
KAOO 291550Z 2916/3012 16005KT P6SM OVC100
     FM291900 18009KT 2SM -FZRASN BR OVC025
     FM292000 18010KT 1SM -SN BR OVC009
     FM300600 27010KT P6SM VCSH OVC015=



000
FTUS41 KCTP 291550 AAA
TAFBFD
TAF AMD
KBFD 291550Z 2916/3012 17010G17KT P6SM OVC050
     FM291900 16009G19KT 1SM -SN BR OVC015
     FM292100 18010G20KT 1SM -SN BR OVC003
     FM300300 17008KT 3SM -SN OVC015=



000
FTUS41 KCTP 291550 AAA
TAFMDT
TAF AMD
KMDT 291550Z 2916/3012 13004KT P6SM OVC100
     FM292300 16005KT 2SM -SN OVC025
     FM300800 29010KT P6SM VCSH OVC050=



000
FTUS41 KCTP 291145
TAFUNV
TAF
KUNV 291145Z 2912/3012 00000KT P6SM SKC
     FM291500 VRB03KT P6SM OVC100
     FM291900 11008G16KT 2SM -SN BR OVC015
     FM300600 27010KT P6SM SCT015 OVC025=



000
FTUS41 KCTP 291145
TAFIPT
TAF
KIPT 291145Z 2912/3012 00000KT P6SM SKC
     FM291500 12004KT P6SM OVC100
     FM292100 11008G16KT 3SM -SN BR OVC025
     FM300600 19006KT P6SM OVC015=



000
FTUS41 KCTP 291145
TAFAOO
TAF
KAOO 291145Z 2912/3012 00000KT P6SM SKC
     FM291500 16005KT P6SM OVC100
     FM291900 18009KT 3SM -FZRASN BR OVC025
     FM292000 18010KT 1SM -SN BR OVC009
     FM300600 27010KT P6SM OVC015=



000
FTUS41 KCTP 291145
TAFBFD
TAF
KBFD 291145Z 2912/3012 12003KT P6SM SKC
     FM291400 15010G17KT P6SM OVC050
     FM291900 16009G19KT 2SM -SN BR OVC015
     FM292100 18010G20KT 1SM -SN BR OVC003
     FM300300 17008KT 3SM -SN OVC015=



000
FTUS41 KCTP 291145
TAFMDT
TAF
KMDT 291145Z 2912/3012 32005KT P6SM SKC
     FM291500 13004KT P6SM OVC100
     FM300000 16005KT 1SM -SN OVC025
     FM300200 30010KT P6SM VCSH SCT025=



000
FTUS41 KCTP 291145
TAFJST
TAF
KJST 291145Z 2912/3012 22006KT P6SM SKC
     FM291500 17008KT P6SM OVC100
     FM291900 18009KT 3SM -FZRASN BR OVC025
     FM292000 18010KT 1SM -SN BR OVC009=



000
FTUS41 KCTP 291145
TAFMDT
TAF
KMDT 291145Z 2912/3012 32005KT P6SM SKC
     FM291500 13004KT P6SM OVC100
     FM300000 16005KT 1SM -SN OVC025
     FM300200 30010KT P6SM VCSH SCT025=



000
FTUS41 KCTP 291145
TAFJST
TAF
KJST 291145Z 2912/3012 22006KT P6SM SKC
     FM291500 17008KT P6SM OVC100
     FM291900 18009KT 3SM -FZRASN BR OVC025
     FM292000 18010KT 1SM -SN BR OVC009=



000
FTUS41 KCTP 291145
TAFAOO
TAF
KAOO 291145Z 2912/3012 00000KT P6SM SKC
     FM291500 16005KT P6SM OVC100
     FM291900 18009KT 3SM -FZRASN BR OVC025
     FM292000 18010KT 1SM -SN BR OVC009
     FM300600 27010KT P6SM OVC015=



000
FTUS41 KCTP 291145
TAFIPT
TAF
KIPT 291145Z 2912/3012 00000KT P6SM SKC
     FM291500 12004KT P6SM OVC100
     FM292100 11008G16KT 3SM -SN BR OVC025
     FM300600 19006KT P6SM OVC015=



000
FTUS41 KCTP 291145
TAFUNV
TAF
KUNV 291145Z 2912/3012 00000KT P6SM SKC
     FM291500 VRB03KT P6SM OVC100
     FM291900 11008G16KT 2SM -SN BR OVC015
     FM300600 27010KT P6SM SCT015 OVC025=



000
FTUS41 KCTP 291145
TAFBFD
TAF
KBFD 291145Z 2912/3012 12003KT P6SM SKC
     FM291400 15010G17KT P6SM OVC050
     FM291900 16009G19KT 2SM -SN BR OVC015
     FM292100 18010G20KT 1SM -SN BR OVC003
     FM300300 17008KT 3SM -SN OVC015=



000
FTUS41 KCTP 290911 AAA
TAFIPT
TAF AMD
KIPT 290911Z 2909/3006 00000KT P6SM SKC
     FM291500 12004KT P6SM OVC100
     FM291900 11008G16KT 3SM -SN BR OVC025=



000
FTUS41 KCTP 290911 AAB
TAFBFD
TAF AMD
KBFD 290911Z 2909/3006 12003KT P6SM SKC
     FM291400 15010G17KT P6SM OVC050
     FM291700 16009G19KT 2SM -SN BR OVC015
     FM292100 18010G20KT 1SM -SN BR OVC003=



000
FTUS41 KCTP 290911 AAA
TAFAOO
TAF AMD
KAOO 290911Z 2909/3006 00000KT P6SM SKC
     FM291500 16005KT P6SM OVC100
     FM291800 17007KT 2SM -SN BR OVC015=



000
FTUS41 KCTP 290911 AAA
TAFJST
TAF AMD
KJST 290911Z 2909/3006 22006KT P6SM SKC
     FM291500 17008KT P6SM OVC100
     FM291600 18009KT 3SM -SN BR OVC025=



000
FTUS41 KCTP 290911 AAA
TAFIPT
TAF AMD
KIPT 290911Z 2909/3006 00000KT P6SM SKC
     FM291500 12004KT P6SM OVC100
     FM291900 11008G16KT 3SM -SN BR OVC025=



000
FTUS41 KCTP 290911 AAB
TAFBFD
TAF AMD
KBFD 290911Z 2909/3006 12003KT P6SM SKC
     FM291400 15010G17KT P6SM OVC050
     FM291700 16009G19KT 2SM -SN BR OVC015
     FM292100 18010G20KT 1SM -SN BR OVC003=



000
FTUS41 KCTP 290911 AAA
TAFMDT
TAF AMD
KMDT 290911Z 2909/3006 32005KT P6SM SKC
     FM291500 13004KT P6SM OVC100
     FM292200 16005KT 3SM -SN OVC025=



000
FTUS41 KCTP 290911 AAA
TAFAOO
TAF AMD
KAOO 290911Z 2909/3006 00000KT P6SM SKC
     FM291500 16005KT P6SM OVC100
     FM291800 17007KT 2SM -SN BR OVC015=



000
FTUS41 KCTP 290911 AAA
TAFJST
TAF AMD
KJST 290911Z 2909/3006 22006KT P6SM SKC
     FM291500 17008KT P6SM OVC100
     FM291600 18009KT 3SM -SN BR OVC025=



000
FTUS41 KCTP 290911 AAA
TAFUNV
TAF AMD
KUNV 290911Z 2909/3006 00000KT P6SM SKC
     FM291500 VRB03KT P6SM OVC100
     FM291700 11008G16KT 3SM -SN BR OVC015=



    US Dept of Commerce
    National Oceanic and Atmospheric Administration
    National Weather Service
    1325 East West Highway
    Silver Spring, MD 20910
    Page Author: NWS Internet Services Team
Disclaimer
Information Quality
Credits
Glossary
Privacy Policy
Freedom of Information Act (FOIA)
About Us
Career Opportunities